<?xml version="1.0" encoding="UTF-8" standalone="no" ?>
<gpx xmlns="http://www.topografix.com/GPX/1/1" creator="MapSource 6.11.6" version="1.1" xmlns:xsi="http://www.w3.org/2001/XMLSchema-instance" xsi:schemaLocation="http://www.topografix.com/GPX/1/1 http://www.topografix.com/GPX/1/1/gpx.xsd">

  <metadata>
    <link href="http://www.garmin.com">
      <text>Garmin International</text>
    </link>
    <time>2009-09-01T16:08:08Z</time>
    <bounds maxlat="50.634289" maxlon="6.481262" minlat="50.605424" minlon="6.383240"/>
  </metadata>

  <trk>
    <name>Bundsandstein-Route 3 original</name>
    <extensions>
      <gpxx:TrackExtension xmlns:gpxx="http://www.garmin.com/xmlschemas/GpxExtensions/v3" xmlns:xsi="http://www.w3.org/2001/XMLSchema-instance" xsi:schemaLocation="http://www.garmin.com/xmlschemas/GpxExtensions/v3 http://www.garmin.com/xmlschemas/GpxExtensions/v3/GpxExtensionsv3.xsd">
        <gpxx:DisplayColor>White</gpxx:DisplayColor>
      </gpxx:TrackExtension>
    </extensions>
    <trkseg>
      <trkpt lat="50.634237" lon="6.474502">
        <ele>328.430000</ele>
        <time>2009-09-01T07:40:38Z</time>
      </trkpt>
      <trkpt lat="50.634289" lon="6.474717">
        <ele>329.390000</ele>
        <time>2009-09-01T07:41:05Z</time>
      </trkpt>
      <trkpt lat="50.634198" lon="6.474855">
        <ele>329.870000</ele>
        <time>2009-09-01T07:41:11Z</time>
      </trkpt>
      <trkpt lat="50.634154" lon="6.474897">
        <ele>329.870000</ele>
        <time>2009-09-01T07:41:15Z</time>
      </trkpt>
      <trkpt lat="50.634046" lon="6.475086">
        <ele>330.350000</ele>
        <time>2009-09-01T07:41:28Z</time>
      </trkpt>
      <trkpt lat="50.634042" lon="6.475204">
        <ele>333.710000</ele>
        <time>2009-09-01T07:41:37Z</time>
      </trkpt>
      <trkpt lat="50.634027" lon="6.475257">
        <ele>330.350000</ele>
        <time>2009-09-01T07:41:39Z</time>
      </trkpt>
      <trkpt lat="50.634017" lon="6.475288">
        <ele>333.710000</ele>
        <time>2009-09-01T07:41:40Z</time>
      </trkpt>
      <trkpt lat="50.634028" lon="6.475299">
        <ele>333.230000</ele>
        <time>2009-09-01T07:41:41Z</time>
      </trkpt>
      <trkpt lat="50.634033" lon="6.475329">
        <ele>331.790000</ele>
        <time>2009-09-01T07:41:43Z</time>
      </trkpt>
      <trkpt lat="50.633965" lon="6.475554">
        <ele>330.350000</ele>
        <time>2009-09-01T07:41:55Z</time>
      </trkpt>
      <trkpt lat="50.633935" lon="6.475596">
        <ele>330.350000</ele>
        <time>2009-09-01T07:41:57Z</time>
      </trkpt>
      <trkpt lat="50.633465" lon="6.475794">
        <ele>330.350000</ele>
        <time>2009-09-01T07:42:10Z</time>
      </trkpt>
      <trkpt lat="50.633501" lon="6.475961">
        <ele>329.390000</ele>
        <time>2009-09-01T07:42:22Z</time>
      </trkpt>
      <trkpt lat="50.633423" lon="6.476373">
        <ele>326.020000</ele>
        <time>2009-09-01T07:42:42Z</time>
      </trkpt>
      <trkpt lat="50.633417" lon="6.476718">
        <ele>323.620000</ele>
        <time>2009-09-01T07:42:58Z</time>
      </trkpt>
      <trkpt lat="50.633362" lon="6.476893">
        <ele>323.140000</ele>
        <time>2009-09-01T07:43:07Z</time>
      </trkpt>
      <trkpt lat="50.633364" lon="6.476894">
        <ele>319.300000</ele>
        <time>2009-09-01T07:45:07Z</time>
      </trkpt>
      <trkpt lat="50.633370" lon="6.476922">
        <ele>318.810000</ele>
        <time>2009-09-01T07:45:09Z</time>
      </trkpt>
      <trkpt lat="50.633379" lon="6.477127">
        <ele>316.890000</ele>
        <time>2009-09-01T07:45:18Z</time>
      </trkpt>
      <trkpt lat="50.633387" lon="6.477264">
        <ele>316.890000</ele>
        <time>2009-09-01T07:45:27Z</time>
      </trkpt>
      <trkpt lat="50.633383" lon="6.477371">
        <ele>316.890000</ele>
        <time>2009-09-01T07:45:32Z</time>
      </trkpt>
      <trkpt lat="50.633448" lon="6.477505">
        <ele>315.930000</ele>
        <time>2009-09-01T07:45:39Z</time>
      </trkpt>
      <trkpt lat="50.633468" lon="6.477585">
        <ele>316.410000</ele>
        <time>2009-09-01T07:45:43Z</time>
      </trkpt>
      <trkpt lat="50.633596" lon="6.477892">
        <ele>315.930000</ele>
        <time>2009-09-01T07:45:53Z</time>
      </trkpt>
      <trkpt lat="50.633707" lon="6.477934">
        <ele>315.450000</ele>
        <time>2009-09-01T07:45:58Z</time>
      </trkpt>
      <trkpt lat="50.633748" lon="6.478085">
        <ele>315.930000</ele>
        <time>2009-09-01T07:46:05Z</time>
      </trkpt>
      <trkpt lat="50.633707" lon="6.478260">
        <ele>316.890000</ele>
        <time>2009-09-01T07:46:11Z</time>
      </trkpt>
      <trkpt lat="50.633709" lon="6.478387">
        <ele>316.410000</ele>
        <time>2009-09-01T07:46:15Z</time>
      </trkpt>
      <trkpt lat="50.633744" lon="6.478466">
        <ele>316.890000</ele>
        <time>2009-09-01T07:46:18Z</time>
      </trkpt>
      <trkpt lat="50.633751" lon="6.478698">
        <ele>315.450000</ele>
        <time>2009-09-01T07:46:30Z</time>
      </trkpt>
      <trkpt lat="50.633716" lon="6.478821">
        <ele>315.450000</ele>
        <time>2009-09-01T07:46:34Z</time>
      </trkpt>
      <trkpt lat="50.633670" lon="6.478945">
        <ele>315.450000</ele>
        <time>2009-09-01T07:46:41Z</time>
      </trkpt>
      <trkpt lat="50.633649" lon="6.479051">
        <ele>314.970000</ele>
        <time>2009-09-01T07:46:48Z</time>
      </trkpt>
      <trkpt lat="50.633672" lon="6.479238">
        <ele>315.450000</ele>
        <time>2009-09-01T07:46:55Z</time>
      </trkpt>
      <trkpt lat="50.633715" lon="6.479358">
        <ele>314.970000</ele>
        <time>2009-09-01T07:47:03Z</time>
      </trkpt>
      <trkpt lat="50.633673" lon="6.479595">
        <ele>314.970000</ele>
        <time>2009-09-01T07:47:11Z</time>
      </trkpt>
      <trkpt lat="50.633671" lon="6.479695">
        <ele>314.490000</ele>
        <time>2009-09-01T07:47:19Z</time>
      </trkpt>
      <trkpt lat="50.633541" lon="6.479958">
        <ele>314.010000</ele>
        <time>2009-09-01T07:47:30Z</time>
      </trkpt>
      <trkpt lat="50.633533" lon="6.480031">
        <ele>314.010000</ele>
        <time>2009-09-01T07:47:34Z</time>
      </trkpt>
      <trkpt lat="50.633461" lon="6.480366">
        <ele>314.010000</ele>
        <time>2009-09-01T07:47:47Z</time>
      </trkpt>
      <trkpt lat="50.633304" lon="6.480498">
        <ele>314.010000</ele>
        <time>2009-09-01T07:47:56Z</time>
      </trkpt>
      <trkpt lat="50.633233" lon="6.480523">
        <ele>314.490000</ele>
        <time>2009-09-01T07:48:00Z</time>
      </trkpt>
      <trkpt lat="50.633213" lon="6.480621">
        <ele>314.010000</ele>
        <time>2009-09-01T07:48:14Z</time>
      </trkpt>
      <trkpt lat="50.633135" lon="6.480710">
        <ele>314.010000</ele>
        <time>2009-09-01T07:48:29Z</time>
      </trkpt>
      <trkpt lat="50.633088" lon="6.480623">
        <ele>315.450000</ele>
        <time>2009-09-01T07:48:33Z</time>
      </trkpt>
      <trkpt lat="50.633088" lon="6.480591">
        <ele>315.930000</ele>
        <time>2009-09-01T07:48:35Z</time>
      </trkpt>
      <trkpt lat="50.633030" lon="6.480572">
        <ele>315.450000</ele>
        <time>2009-09-01T07:48:41Z</time>
      </trkpt>
      <trkpt lat="50.632841" lon="6.480610">
        <ele>316.890000</ele>
        <time>2009-09-01T07:48:54Z</time>
      </trkpt>
      <trkpt lat="50.632731" lon="6.480660">
        <ele>317.370000</ele>
        <time>2009-09-01T07:49:07Z</time>
      </trkpt>
      <trkpt lat="50.632669" lon="6.480717">
        <ele>317.370000</ele>
        <time>2009-09-01T07:49:20Z</time>
      </trkpt>
      <trkpt lat="50.632597" lon="6.480794">
        <ele>314.010000</ele>
        <time>2009-09-01T07:49:30Z</time>
      </trkpt>
      <trkpt lat="50.632415" lon="6.480927">
        <ele>310.640000</ele>
        <time>2009-09-01T07:49:41Z</time>
      </trkpt>
      <trkpt lat="50.632399" lon="6.480786">
        <ele>308.240000</ele>
        <time>2009-09-01T07:49:49Z</time>
      </trkpt>
      <trkpt lat="50.632546" lon="6.480637">
        <ele>305.360000</ele>
        <time>2009-09-01T07:49:58Z</time>
      </trkpt>
      <trkpt lat="50.632593" lon="6.480562">
        <ele>304.390000</ele>
        <time>2009-09-01T07:50:02Z</time>
      </trkpt>
      <trkpt lat="50.632593" lon="6.480456">
        <ele>303.430000</ele>
        <time>2009-09-01T07:50:08Z</time>
      </trkpt>
      <trkpt lat="50.632567" lon="6.480411">
        <ele>302.950000</ele>
        <time>2009-09-01T07:50:12Z</time>
      </trkpt>
      <trkpt lat="50.632486" lon="6.480531">
        <ele>301.510000</ele>
        <time>2009-09-01T07:50:27Z</time>
      </trkpt>
      <trkpt lat="50.632414" lon="6.480588">
        <ele>301.510000</ele>
        <time>2009-09-01T07:50:38Z</time>
      </trkpt>
      <trkpt lat="50.632421" lon="6.480578">
        <ele>301.990000</ele>
        <time>2009-09-01T07:50:39Z</time>
      </trkpt>
      <trkpt lat="50.632577" lon="6.480364">
        <ele>301.510000</ele>
        <time>2009-09-01T07:50:55Z</time>
      </trkpt>
      <trkpt lat="50.632575" lon="6.480308">
        <ele>301.990000</ele>
        <time>2009-09-01T07:50:58Z</time>
      </trkpt>
      <trkpt lat="50.632577" lon="6.480240">
        <ele>300.550000</ele>
        <time>2009-09-01T07:51:02Z</time>
      </trkpt>
      <trkpt lat="50.632494" lon="6.480213">
        <ele>299.110000</ele>
        <time>2009-09-01T07:51:14Z</time>
      </trkpt>
      <trkpt lat="50.632402" lon="6.480283">
        <ele>298.150000</ele>
        <time>2009-09-01T07:51:23Z</time>
      </trkpt>
      <trkpt lat="50.632171" lon="6.480189">
        <ele>297.670000</ele>
        <time>2009-09-01T07:51:39Z</time>
      </trkpt>
      <trkpt lat="50.631997" lon="6.480285">
        <ele>296.220000</ele>
        <time>2009-09-01T07:51:53Z</time>
      </trkpt>
      <trkpt lat="50.631899" lon="6.480386">
        <ele>295.740000</ele>
        <time>2009-09-01T07:52:04Z</time>
      </trkpt>
      <trkpt lat="50.631884" lon="6.480392">
        <ele>295.260000</ele>
        <time>2009-09-01T07:52:08Z</time>
      </trkpt>
      <trkpt lat="50.631766" lon="6.480567">
        <ele>294.780000</ele>
        <time>2009-09-01T07:52:20Z</time>
      </trkpt>
      <trkpt lat="50.631729" lon="6.480593">
        <ele>294.780000</ele>
        <time>2009-09-01T07:52:29Z</time>
      </trkpt>
      <trkpt lat="50.631539" lon="6.480719">
        <ele>294.300000</ele>
        <time>2009-09-01T07:52:41Z</time>
      </trkpt>
      <trkpt lat="50.631472" lon="6.480798">
        <ele>294.780000</ele>
        <time>2009-09-01T07:52:44Z</time>
      </trkpt>
      <trkpt lat="50.631336" lon="6.480898">
        <ele>295.260000</ele>
        <time>2009-09-01T07:52:57Z</time>
      </trkpt>
      <trkpt lat="50.631129" lon="6.480937">
        <ele>295.260000</ele>
        <time>2009-09-01T07:53:10Z</time>
      </trkpt>
      <trkpt lat="50.630883" lon="6.480917">
        <ele>293.820000</ele>
        <time>2009-09-01T07:53:26Z</time>
      </trkpt>
      <trkpt lat="50.630656" lon="6.480898">
        <ele>294.300000</ele>
        <time>2009-09-01T07:53:42Z</time>
      </trkpt>
      <trkpt lat="50.630496" lon="6.480885">
        <ele>293.820000</ele>
        <time>2009-09-01T07:53:55Z</time>
      </trkpt>
      <trkpt lat="50.630389" lon="6.480807">
        <ele>293.820000</ele>
        <time>2009-09-01T07:54:13Z</time>
      </trkpt>
      <trkpt lat="50.630185" lon="6.480775">
        <ele>293.340000</ele>
        <time>2009-09-01T07:54:27Z</time>
      </trkpt>
      <trkpt lat="50.630106" lon="6.480751">
        <ele>293.340000</ele>
        <time>2009-09-01T07:54:34Z</time>
      </trkpt>
      <trkpt lat="50.630035" lon="6.480803">
        <ele>293.340000</ele>
        <time>2009-09-01T07:54:41Z</time>
      </trkpt>
      <trkpt lat="50.629897" lon="6.480724">
        <ele>293.820000</ele>
        <time>2009-09-01T07:54:50Z</time>
      </trkpt>
      <trkpt lat="50.629803" lon="6.480715">
        <ele>294.300000</ele>
        <time>2009-09-01T07:54:57Z</time>
      </trkpt>
      <trkpt lat="50.629722" lon="6.480620">
        <ele>293.340000</ele>
        <time>2009-09-01T07:55:09Z</time>
      </trkpt>
      <trkpt lat="50.629517" lon="6.480518">
        <ele>293.340000</ele>
        <time>2009-09-01T07:55:24Z</time>
      </trkpt>
      <trkpt lat="50.629304" lon="6.480470">
        <ele>293.340000</ele>
        <time>2009-09-01T07:55:39Z</time>
      </trkpt>
      <trkpt lat="50.629180" lon="6.480529">
        <ele>293.820000</ele>
        <time>2009-09-01T07:55:51Z</time>
      </trkpt>
      <trkpt lat="50.629174" lon="6.480503">
        <ele>293.340000</ele>
        <time>2009-09-01T07:55:54Z</time>
      </trkpt>
      <trkpt lat="50.628757" lon="6.480138">
        <ele>281.800000</ele>
        <time>2009-09-01T08:01:08Z</time>
      </trkpt>
      <trkpt lat="50.628711" lon="6.480138">
        <ele>281.320000</ele>
        <time>2009-09-01T08:01:24Z</time>
      </trkpt>
      <trkpt lat="50.628581" lon="6.480247">
        <ele>282.770000</ele>
        <time>2009-09-01T08:01:42Z</time>
      </trkpt>
      <trkpt lat="50.628615" lon="6.480242">
        <ele>282.770000</ele>
        <time>2009-09-01T08:01:45Z</time>
      </trkpt>
      <trkpt lat="50.628751" lon="6.480394">
        <ele>284.210000</ele>
        <time>2009-09-01T08:02:04Z</time>
      </trkpt>
      <trkpt lat="50.628854" lon="6.480455">
        <ele>283.730000</ele>
        <time>2009-09-01T08:02:27Z</time>
      </trkpt>
      <trkpt lat="50.628965" lon="6.480455">
        <ele>284.210000</ele>
        <time>2009-09-01T08:02:38Z</time>
      </trkpt>
      <trkpt lat="50.629248" lon="6.480644">
        <ele>286.130000</ele>
        <time>2009-09-01T08:02:57Z</time>
      </trkpt>
      <trkpt lat="50.629357" lon="6.480762">
        <ele>287.570000</ele>
        <time>2009-09-01T08:03:13Z</time>
      </trkpt>
      <trkpt lat="50.629071" lon="6.480667">
        <ele>288.530000</ele>
        <time>2009-09-01T08:03:33Z</time>
      </trkpt>
      <trkpt lat="50.628777" lon="6.480482">
        <ele>290.460000</ele>
        <time>2009-09-01T08:03:53Z</time>
      </trkpt>
      <trkpt lat="50.628709" lon="6.480464">
        <ele>290.460000</ele>
        <time>2009-09-01T08:03:58Z</time>
      </trkpt>
      <trkpt lat="50.628601" lon="6.480509">
        <ele>291.420000</ele>
        <time>2009-09-01T08:04:07Z</time>
      </trkpt>
      <trkpt lat="50.628555" lon="6.480579">
        <ele>291.420000</ele>
        <time>2009-09-01T08:04:12Z</time>
      </trkpt>
      <trkpt lat="50.628437" lon="6.480723">
        <ele>292.860000</ele>
        <time>2009-09-01T08:04:22Z</time>
      </trkpt>
      <trkpt lat="50.628364" lon="6.480880">
        <ele>293.340000</ele>
        <time>2009-09-01T08:04:32Z</time>
      </trkpt>
      <trkpt lat="50.628265" lon="6.481048">
        <ele>294.780000</ele>
        <time>2009-09-01T08:04:42Z</time>
      </trkpt>
      <trkpt lat="50.628214" lon="6.481123">
        <ele>294.780000</ele>
        <time>2009-09-01T08:04:46Z</time>
      </trkpt>
      <trkpt lat="50.628221" lon="6.481183">
        <ele>295.260000</ele>
        <time>2009-09-01T08:04:48Z</time>
      </trkpt>
      <trkpt lat="50.628090" lon="6.481262">
        <ele>294.780000</ele>
        <time>2009-09-01T08:04:58Z</time>
      </trkpt>
      <trkpt lat="50.628011" lon="6.481196">
        <ele>294.780000</ele>
        <time>2009-09-01T08:05:02Z</time>
      </trkpt>
      <trkpt lat="50.627916" lon="6.481130">
        <ele>294.780000</ele>
        <time>2009-09-01T08:05:11Z</time>
      </trkpt>
      <trkpt lat="50.627922" lon="6.480940">
        <ele>296.220000</ele>
        <time>2009-09-01T08:05:21Z</time>
      </trkpt>
      <trkpt lat="50.628028" lon="6.480416">
        <ele>296.700000</ele>
        <time>2009-09-01T08:05:44Z</time>
      </trkpt>
      <trkpt lat="50.628001" lon="6.479940">
        <ele>297.670000</ele>
        <time>2009-09-01T08:06:04Z</time>
      </trkpt>
      <trkpt lat="50.628008" lon="6.479917">
        <ele>297.180000</ele>
        <time>2009-09-01T08:06:05Z</time>
      </trkpt>
      <trkpt lat="50.628101" lon="6.479699">
        <ele>297.670000</ele>
        <time>2009-09-01T08:06:17Z</time>
      </trkpt>
      <trkpt lat="50.628142" lon="6.479427">
        <ele>297.180000</ele>
        <time>2009-09-01T08:06:38Z</time>
      </trkpt>
      <trkpt lat="50.628101" lon="6.479392">
        <ele>296.220000</ele>
        <time>2009-09-01T08:07:01Z</time>
      </trkpt>
      <trkpt lat="50.627882" lon="6.479243">
        <ele>296.220000</ele>
        <time>2009-09-01T08:07:16Z</time>
      </trkpt>
      <trkpt lat="50.627829" lon="6.479127">
        <ele>296.700000</ele>
        <time>2009-09-01T08:07:22Z</time>
      </trkpt>
      <trkpt lat="50.627782" lon="6.479049">
        <ele>296.700000</ele>
        <time>2009-09-01T08:07:26Z</time>
      </trkpt>
      <trkpt lat="50.627732" lon="6.478999">
        <ele>297.180000</ele>
        <time>2009-09-01T08:07:30Z</time>
      </trkpt>
      <trkpt lat="50.627593" lon="6.478834">
        <ele>298.150000</ele>
        <time>2009-09-01T08:07:42Z</time>
      </trkpt>
      <trkpt lat="50.627474" lon="6.478727">
        <ele>299.110000</ele>
        <time>2009-09-01T08:07:51Z</time>
      </trkpt>
      <trkpt lat="50.627355" lon="6.478590">
        <ele>300.550000</ele>
        <time>2009-09-01T08:08:00Z</time>
      </trkpt>
      <trkpt lat="50.627303" lon="6.478544">
        <ele>300.550000</ele>
        <time>2009-09-01T08:08:03Z</time>
      </trkpt>
      <trkpt lat="50.627294" lon="6.478502">
        <ele>300.550000</ele>
        <time>2009-09-01T08:08:05Z</time>
      </trkpt>
      <trkpt lat="50.627201" lon="6.478240">
        <ele>300.070000</ele>
        <time>2009-09-01T08:08:18Z</time>
      </trkpt>
      <trkpt lat="50.627104" lon="6.478018">
        <ele>300.550000</ele>
        <time>2009-09-01T08:08:32Z</time>
      </trkpt>
      <trkpt lat="50.627067" lon="6.477783">
        <ele>301.030000</ele>
        <time>2009-09-01T08:08:41Z</time>
      </trkpt>
      <trkpt lat="50.627021" lon="6.477545">
        <ele>301.510000</ele>
        <time>2009-09-01T08:08:54Z</time>
      </trkpt>
      <trkpt lat="50.626978" lon="6.477467">
        <ele>301.510000</ele>
        <time>2009-09-01T08:08:59Z</time>
      </trkpt>
      <trkpt lat="50.626824" lon="6.477134">
        <ele>302.950000</ele>
        <time>2009-09-01T08:09:21Z</time>
      </trkpt>
      <trkpt lat="50.626813" lon="6.477101">
        <ele>303.430000</ele>
        <time>2009-09-01T08:09:23Z</time>
      </trkpt>
      <trkpt lat="50.626671" lon="6.476714">
        <ele>304.390000</ele>
        <time>2009-09-01T08:09:48Z</time>
      </trkpt>
      <trkpt lat="50.626619" lon="6.476636">
        <ele>304.880000</ele>
        <time>2009-09-01T08:09:54Z</time>
      </trkpt>
      <trkpt lat="50.626463" lon="6.476325">
        <ele>305.840000</ele>
        <time>2009-09-01T08:10:14Z</time>
      </trkpt>
      <trkpt lat="50.626286" lon="6.475931">
        <ele>308.720000</ele>
        <time>2009-09-01T08:10:37Z</time>
      </trkpt>
      <trkpt lat="50.626156" lon="6.475752">
        <ele>309.680000</ele>
        <time>2009-09-01T08:10:51Z</time>
      </trkpt>
      <trkpt lat="50.626125" lon="6.475637">
        <ele>310.640000</ele>
        <time>2009-09-01T08:11:03Z</time>
      </trkpt>
      <trkpt lat="50.626125" lon="6.475610">
        <ele>310.160000</ele>
        <time>2009-09-01T08:11:04Z</time>
      </trkpt>
      <trkpt lat="50.626086" lon="6.475313">
        <ele>311.120000</ele>
        <time>2009-09-01T08:11:15Z</time>
      </trkpt>
      <trkpt lat="50.626051" lon="6.475259">
        <ele>311.600000</ele>
        <time>2009-09-01T08:11:18Z</time>
      </trkpt>
      <trkpt lat="50.626069" lon="6.474974">
        <ele>312.570000</ele>
        <time>2009-09-01T08:11:34Z</time>
      </trkpt>
      <trkpt lat="50.626084" lon="6.474549">
        <ele>314.970000</ele>
        <time>2009-09-01T08:11:51Z</time>
      </trkpt>
      <trkpt lat="50.626103" lon="6.474470">
        <ele>314.970000</ele>
        <time>2009-09-01T08:11:54Z</time>
      </trkpt>
      <trkpt lat="50.626090" lon="6.474399">
        <ele>315.450000</ele>
        <time>2009-09-01T08:11:58Z</time>
      </trkpt>
      <trkpt lat="50.625914" lon="6.474241">
        <ele>317.370000</ele>
        <time>2009-09-01T08:12:09Z</time>
      </trkpt>
      <trkpt lat="50.625911" lon="6.474108">
        <ele>317.850000</ele>
        <time>2009-09-01T08:12:16Z</time>
      </trkpt>
      <trkpt lat="50.625905" lon="6.474081">
        <ele>318.330000</ele>
        <time>2009-09-01T08:12:18Z</time>
      </trkpt>
      <trkpt lat="50.625916" lon="6.473930">
        <ele>318.810000</ele>
        <time>2009-09-01T08:12:27Z</time>
      </trkpt>
      <trkpt lat="50.625943" lon="6.473845">
        <ele>319.780000</ele>
        <time>2009-09-01T08:12:33Z</time>
      </trkpt>
      <trkpt lat="50.625940" lon="6.473749">
        <ele>320.740000</ele>
        <time>2009-09-01T08:12:40Z</time>
      </trkpt>
      <trkpt lat="50.625908" lon="6.473682">
        <ele>322.180000</ele>
        <time>2009-09-01T08:12:48Z</time>
      </trkpt>
      <trkpt lat="50.625821" lon="6.473635">
        <ele>322.660000</ele>
        <time>2009-09-01T08:12:52Z</time>
      </trkpt>
      <trkpt lat="50.625868" lon="6.473457">
        <ele>322.660000</ele>
        <time>2009-09-01T08:13:08Z</time>
      </trkpt>
      <trkpt lat="50.625745" lon="6.473264">
        <ele>324.580000</ele>
        <time>2009-09-01T08:13:39Z</time>
      </trkpt>
      <trkpt lat="50.625739" lon="6.473202">
        <ele>326.020000</ele>
        <time>2009-09-01T08:13:45Z</time>
      </trkpt>
      <trkpt lat="50.625691" lon="6.473091">
        <ele>326.990000</ele>
        <time>2009-09-01T08:13:52Z</time>
      </trkpt>
      <trkpt lat="50.625600" lon="6.473057">
        <ele>328.910000</ele>
        <time>2009-09-01T08:14:08Z</time>
      </trkpt>
      <trkpt lat="50.625563" lon="6.472857">
        <ele>331.310000</ele>
        <time>2009-09-01T08:14:30Z</time>
      </trkpt>
      <trkpt lat="50.625300" lon="6.472572">
        <ele>332.270000</ele>
        <time>2009-09-01T08:14:47Z</time>
      </trkpt>
      <trkpt lat="50.625272" lon="6.472526">
        <ele>331.790000</ele>
        <time>2009-09-01T08:14:50Z</time>
      </trkpt>
      <trkpt lat="50.625145" lon="6.472109">
        <ele>332.270000</ele>
        <time>2009-09-01T08:15:02Z</time>
      </trkpt>
      <trkpt lat="50.625090" lon="6.471863">
        <ele>332.270000</ele>
        <time>2009-09-01T08:15:13Z</time>
      </trkpt>
      <trkpt lat="50.625049" lon="6.471586">
        <ele>331.310000</ele>
        <time>2009-09-01T08:15:30Z</time>
      </trkpt>
      <trkpt lat="50.625019" lon="6.471498">
        <ele>331.310000</ele>
        <time>2009-09-01T08:15:34Z</time>
      </trkpt>
      <trkpt lat="50.624912" lon="6.471190">
        <ele>330.830000</ele>
        <time>2009-09-01T08:15:49Z</time>
      </trkpt>
      <trkpt lat="50.624868" lon="6.471010">
        <ele>329.870000</ele>
        <time>2009-09-01T08:15:55Z</time>
      </trkpt>
      <trkpt lat="50.624811" lon="6.470881">
        <ele>329.390000</ele>
        <time>2009-09-01T08:16:02Z</time>
      </trkpt>
      <trkpt lat="50.624710" lon="6.470780">
        <ele>327.470000</ele>
        <time>2009-09-01T08:16:15Z</time>
      </trkpt>
      <trkpt lat="50.624503" lon="6.470772">
        <ele>324.100000</ele>
        <time>2009-09-01T08:16:37Z</time>
      </trkpt>
      <trkpt lat="50.624251" lon="6.470807">
        <ele>321.220000</ele>
        <time>2009-09-01T08:16:56Z</time>
      </trkpt>
      <trkpt lat="50.624117" lon="6.470893">
        <ele>318.810000</ele>
        <time>2009-09-01T08:17:13Z</time>
      </trkpt>
      <trkpt lat="50.623852" lon="6.470956">
        <ele>317.370000</ele>
        <time>2009-09-01T08:17:27Z</time>
      </trkpt>
      <trkpt lat="50.623604" lon="6.471052">
        <ele>314.010000</ele>
        <time>2009-09-01T08:17:45Z</time>
      </trkpt>
      <trkpt lat="50.623469" lon="6.470856">
        <ele>314.010000</ele>
        <time>2009-09-01T08:17:52Z</time>
      </trkpt>
      <trkpt lat="50.623563" lon="6.470724">
        <ele>314.010000</ele>
        <time>2009-09-01T08:17:56Z</time>
      </trkpt>
      <trkpt lat="50.623602" lon="6.470651">
        <ele>314.010000</ele>
        <time>2009-09-01T08:17:59Z</time>
      </trkpt>
      <trkpt lat="50.623770" lon="6.470401">
        <ele>313.530000</ele>
        <time>2009-09-01T08:18:13Z</time>
      </trkpt>
      <trkpt lat="50.623818" lon="6.470315">
        <ele>312.570000</ele>
        <time>2009-09-01T08:18:18Z</time>
      </trkpt>
      <trkpt lat="50.623865" lon="6.470249">
        <ele>311.120000</ele>
        <time>2009-09-01T08:18:26Z</time>
      </trkpt>
      <trkpt lat="50.623891" lon="6.470214">
        <ele>310.160000</ele>
        <time>2009-09-01T08:18:30Z</time>
      </trkpt>
      <trkpt lat="50.624159" lon="6.469906">
        <ele>307.280000</ele>
        <time>2009-09-01T08:18:43Z</time>
      </trkpt>
      <trkpt lat="50.624304" lon="6.469689">
        <ele>304.390000</ele>
        <time>2009-09-01T08:18:57Z</time>
      </trkpt>
      <trkpt lat="50.624349" lon="6.469622">
        <ele>303.910000</ele>
        <time>2009-09-01T08:19:01Z</time>
      </trkpt>
      <trkpt lat="50.624477" lon="6.469418">
        <ele>301.990000</ele>
        <time>2009-09-01T08:19:14Z</time>
      </trkpt>
      <trkpt lat="50.624493" lon="6.469178">
        <ele>299.590000</ele>
        <time>2009-09-01T08:19:27Z</time>
      </trkpt>
      <trkpt lat="50.624523" lon="6.468855">
        <ele>296.700000</ele>
        <time>2009-09-01T08:19:42Z</time>
      </trkpt>
      <trkpt lat="50.624538" lon="6.468832">
        <ele>296.700000</ele>
        <time>2009-09-01T08:19:43Z</time>
      </trkpt>
      <trkpt lat="50.624668" lon="6.468663">
        <ele>295.260000</ele>
        <time>2009-09-01T08:19:51Z</time>
      </trkpt>
      <trkpt lat="50.624685" lon="6.468538">
        <ele>294.300000</ele>
        <time>2009-09-01T08:19:57Z</time>
      </trkpt>
      <trkpt lat="50.624711" lon="6.468371">
        <ele>292.860000</ele>
        <time>2009-09-01T08:20:07Z</time>
      </trkpt>
      <trkpt lat="50.624702" lon="6.468280">
        <ele>292.380000</ele>
        <time>2009-09-01T08:20:11Z</time>
      </trkpt>
      <trkpt lat="50.624717" lon="6.468211">
        <ele>291.900000</ele>
        <time>2009-09-01T08:20:17Z</time>
      </trkpt>
      <trkpt lat="50.624625" lon="6.468102">
        <ele>290.940000</ele>
        <time>2009-09-01T08:20:25Z</time>
      </trkpt>
      <trkpt lat="50.624553" lon="6.468021">
        <ele>289.490000</ele>
        <time>2009-09-01T08:20:32Z</time>
      </trkpt>
      <trkpt lat="50.624494" lon="6.467930">
        <ele>288.530000</ele>
        <time>2009-09-01T08:20:43Z</time>
      </trkpt>
      <trkpt lat="50.624336" lon="6.467718">
        <ele>290.460000</ele>
        <time>2009-09-01T08:21:02Z</time>
      </trkpt>
      <trkpt lat="50.624296" lon="6.467665">
        <ele>290.460000</ele>
        <time>2009-09-01T08:21:06Z</time>
      </trkpt>
      <trkpt lat="50.624141" lon="6.467544">
        <ele>291.900000</ele>
        <time>2009-09-01T08:21:19Z</time>
      </trkpt>
      <trkpt lat="50.623980" lon="6.467342">
        <ele>293.820000</ele>
        <time>2009-09-01T08:21:33Z</time>
      </trkpt>
      <trkpt lat="50.623899" lon="6.467278">
        <ele>294.300000</ele>
        <time>2009-09-01T08:21:43Z</time>
      </trkpt>
      <trkpt lat="50.623959" lon="6.467288">
        <ele>293.820000</ele>
        <time>2009-09-01T08:21:56Z</time>
      </trkpt>
      <trkpt lat="50.623932" lon="6.467216">
        <ele>293.340000</ele>
        <time>2009-09-01T08:22:00Z</time>
      </trkpt>
      <trkpt lat="50.623805" lon="6.467152">
        <ele>294.300000</ele>
        <time>2009-09-01T08:22:08Z</time>
      </trkpt>
      <trkpt lat="50.623720" lon="6.467039">
        <ele>294.780000</ele>
        <time>2009-09-01T08:22:12Z</time>
      </trkpt>
      <trkpt lat="50.623702" lon="6.466840">
        <ele>296.220000</ele>
        <time>2009-09-01T08:22:24Z</time>
      </trkpt>
      <trkpt lat="50.623731" lon="6.466646">
        <ele>298.150000</ele>
        <time>2009-09-01T08:22:34Z</time>
      </trkpt>
      <trkpt lat="50.623740" lon="6.466463">
        <ele>297.670000</ele>
        <time>2009-09-01T08:23:57Z</time>
      </trkpt>
      <trkpt lat="50.623718" lon="6.466360">
        <ele>298.150000</ele>
        <time>2009-09-01T08:24:17Z</time>
      </trkpt>
      <trkpt lat="50.623901" lon="6.466259">
        <ele>299.590000</ele>
        <time>2009-09-01T08:24:34Z</time>
      </trkpt>
      <trkpt lat="50.624199" lon="6.466262">
        <ele>300.550000</ele>
        <time>2009-09-01T08:24:48Z</time>
      </trkpt>
      <trkpt lat="50.624311" lon="6.466241">
        <ele>301.030000</ele>
        <time>2009-09-01T08:24:52Z</time>
      </trkpt>
      <trkpt lat="50.624375" lon="6.466172">
        <ele>301.510000</ele>
        <time>2009-09-01T08:24:57Z</time>
      </trkpt>
      <trkpt lat="50.624383" lon="6.466150">
        <ele>301.510000</ele>
        <time>2009-09-01T08:25:01Z</time>
      </trkpt>
      <trkpt lat="50.624556" lon="6.466196">
        <ele>302.470000</ele>
        <time>2009-09-01T08:25:11Z</time>
      </trkpt>
      <trkpt lat="50.624850" lon="6.466150">
        <ele>303.430000</ele>
        <time>2009-09-01T08:25:22Z</time>
      </trkpt>
      <trkpt lat="50.624985" lon="6.466188">
        <ele>304.390000</ele>
        <time>2009-09-01T08:25:32Z</time>
      </trkpt>
      <trkpt lat="50.625187" lon="6.466232">
        <ele>305.360000</ele>
        <time>2009-09-01T08:25:42Z</time>
      </trkpt>
      <trkpt lat="50.625297" lon="6.466300">
        <ele>305.840000</ele>
        <time>2009-09-01T08:25:53Z</time>
      </trkpt>
      <trkpt lat="50.625341" lon="6.466320">
        <ele>305.840000</ele>
        <time>2009-09-01T08:25:57Z</time>
      </trkpt>
      <trkpt lat="50.625447" lon="6.466354">
        <ele>305.840000</ele>
        <time>2009-09-01T08:26:02Z</time>
      </trkpt>
      <trkpt lat="50.625581" lon="6.466338">
        <ele>306.800000</ele>
        <time>2009-09-01T08:26:10Z</time>
      </trkpt>
      <trkpt lat="50.625821" lon="6.466245">
        <ele>306.800000</ele>
        <time>2009-09-01T08:26:24Z</time>
      </trkpt>
      <trkpt lat="50.626062" lon="6.466101">
        <ele>306.800000</ele>
        <time>2009-09-01T08:26:38Z</time>
      </trkpt>
      <trkpt lat="50.626079" lon="6.465977">
        <ele>306.800000</ele>
        <time>2009-09-01T08:26:48Z</time>
      </trkpt>
      <trkpt lat="50.626064" lon="6.465839">
        <ele>306.320000</ele>
        <time>2009-09-01T08:26:54Z</time>
      </trkpt>
      <trkpt lat="50.626043" lon="6.465728">
        <ele>305.840000</ele>
        <time>2009-09-01T08:26:59Z</time>
      </trkpt>
      <trkpt lat="50.626003" lon="6.465494">
        <ele>305.360000</ele>
        <time>2009-09-01T08:27:10Z</time>
      </trkpt>
      <trkpt lat="50.625902" lon="6.465372">
        <ele>305.840000</ele>
        <time>2009-09-01T08:27:20Z</time>
      </trkpt>
      <trkpt lat="50.625859" lon="6.465346">
        <ele>306.320000</ele>
        <time>2009-09-01T08:27:24Z</time>
      </trkpt>
      <trkpt lat="50.625819" lon="6.465286">
        <ele>305.840000</ele>
        <time>2009-09-01T08:27:29Z</time>
      </trkpt>
      <trkpt lat="50.625778" lon="6.465215">
        <ele>305.360000</ele>
        <time>2009-09-01T08:27:33Z</time>
      </trkpt>
      <trkpt lat="50.625656" lon="6.464942">
        <ele>304.880000</ele>
        <time>2009-09-01T08:27:46Z</time>
      </trkpt>
      <trkpt lat="50.625588" lon="6.464876">
        <ele>304.880000</ele>
        <time>2009-09-01T08:27:55Z</time>
      </trkpt>
      <trkpt lat="50.625419" lon="6.464647">
        <ele>304.880000</ele>
        <time>2009-09-01T08:28:07Z</time>
      </trkpt>
      <trkpt lat="50.625420" lon="6.464586">
        <ele>304.880000</ele>
        <time>2009-09-01T08:28:08Z</time>
      </trkpt>
      <trkpt lat="50.625375" lon="6.464457">
        <ele>304.880000</ele>
        <time>2009-09-01T08:28:12Z</time>
      </trkpt>
      <trkpt lat="50.625352" lon="6.464295">
        <ele>304.880000</ele>
        <time>2009-09-01T08:28:20Z</time>
      </trkpt>
      <trkpt lat="50.625331" lon="6.464208">
        <ele>304.880000</ele>
        <time>2009-09-01T08:28:26Z</time>
      </trkpt>
      <trkpt lat="50.625351" lon="6.463893">
        <ele>304.880000</ele>
        <time>2009-09-01T08:28:38Z</time>
      </trkpt>
      <trkpt lat="50.625450" lon="6.463652">
        <ele>304.880000</ele>
        <time>2009-09-01T08:28:53Z</time>
      </trkpt>
      <trkpt lat="50.625348" lon="6.463332">
        <ele>304.880000</ele>
        <time>2009-09-01T08:29:06Z</time>
      </trkpt>
      <trkpt lat="50.625239" lon="6.463044">
        <ele>304.880000</ele>
        <time>2009-09-01T08:29:17Z</time>
      </trkpt>
      <trkpt lat="50.625288" lon="6.462935">
        <ele>304.880000</ele>
        <time>2009-09-01T08:29:22Z</time>
      </trkpt>
      <trkpt lat="50.625235" lon="6.462805">
        <ele>305.840000</ele>
        <time>2009-09-01T08:29:26Z</time>
      </trkpt>
      <trkpt lat="50.625225" lon="6.462735">
        <ele>305.840000</ele>
        <time>2009-09-01T08:29:28Z</time>
      </trkpt>
      <trkpt lat="50.625107" lon="6.462556">
        <ele>306.320000</ele>
        <time>2009-09-01T08:29:40Z</time>
      </trkpt>
      <trkpt lat="50.625011" lon="6.462387">
        <ele>306.800000</ele>
        <time>2009-09-01T08:29:51Z</time>
      </trkpt>
      <trkpt lat="50.624900" lon="6.462302">
        <ele>307.760000</ele>
        <time>2009-09-01T08:29:59Z</time>
      </trkpt>
      <trkpt lat="50.624782" lon="6.462196">
        <ele>307.760000</ele>
        <time>2009-09-01T08:30:10Z</time>
      </trkpt>
      <trkpt lat="50.624610" lon="6.462077">
        <ele>307.760000</ele>
        <time>2009-09-01T08:30:23Z</time>
      </trkpt>
      <trkpt lat="50.624541" lon="6.461929">
        <ele>308.240000</ele>
        <time>2009-09-01T08:30:30Z</time>
      </trkpt>
      <trkpt lat="50.624468" lon="6.461729">
        <ele>309.200000</ele>
        <time>2009-09-01T08:30:38Z</time>
      </trkpt>
      <trkpt lat="50.624458" lon="6.461682">
        <ele>309.200000</ele>
        <time>2009-09-01T08:30:40Z</time>
      </trkpt>
      <trkpt lat="50.624365" lon="6.461448">
        <ele>310.640000</ele>
        <time>2009-09-01T08:30:53Z</time>
      </trkpt>
      <trkpt lat="50.624339" lon="6.461299">
        <ele>310.160000</ele>
        <time>2009-09-01T08:30:59Z</time>
      </trkpt>
      <trkpt lat="50.624329" lon="6.461232">
        <ele>310.640000</ele>
        <time>2009-09-01T08:31:03Z</time>
      </trkpt>
      <trkpt lat="50.624282" lon="6.461143">
        <ele>311.120000</ele>
        <time>2009-09-01T08:31:08Z</time>
      </trkpt>
      <trkpt lat="50.624304" lon="6.460849">
        <ele>311.600000</ele>
        <time>2009-09-01T08:31:20Z</time>
      </trkpt>
      <trkpt lat="50.624303" lon="6.460628">
        <ele>312.090000</ele>
        <time>2009-09-01T08:31:30Z</time>
      </trkpt>
      <trkpt lat="50.624315" lon="6.460462">
        <ele>312.570000</ele>
        <time>2009-09-01T08:31:37Z</time>
      </trkpt>
      <trkpt lat="50.624353" lon="6.460251">
        <ele>313.530000</ele>
        <time>2009-09-01T08:31:47Z</time>
      </trkpt>
      <trkpt lat="50.624315" lon="6.460043">
        <ele>314.010000</ele>
        <time>2009-09-01T08:31:57Z</time>
      </trkpt>
      <trkpt lat="50.624250" lon="6.459918">
        <ele>314.490000</ele>
        <time>2009-09-01T08:32:07Z</time>
      </trkpt>
      <trkpt lat="50.624102" lon="6.459740">
        <ele>314.490000</ele>
        <time>2009-09-01T08:32:22Z</time>
      </trkpt>
      <trkpt lat="50.624073" lon="6.459707">
        <ele>314.490000</ele>
        <time>2009-09-01T08:32:25Z</time>
      </trkpt>
      <trkpt lat="50.624013" lon="6.459679">
        <ele>314.490000</ele>
        <time>2009-09-01T08:32:29Z</time>
      </trkpt>
      <trkpt lat="50.623926" lon="6.459437">
        <ele>314.490000</ele>
        <time>2009-09-01T08:32:40Z</time>
      </trkpt>
      <trkpt lat="50.623914" lon="6.459380">
        <ele>314.490000</ele>
        <time>2009-09-01T08:32:42Z</time>
      </trkpt>
      <trkpt lat="50.623901" lon="6.459284">
        <ele>314.490000</ele>
        <time>2009-09-01T08:32:46Z</time>
      </trkpt>
      <trkpt lat="50.623867" lon="6.459080">
        <ele>314.970000</ele>
        <time>2009-09-01T08:32:55Z</time>
      </trkpt>
      <trkpt lat="50.623857" lon="6.458925">
        <ele>316.410000</ele>
        <time>2009-09-01T08:33:02Z</time>
      </trkpt>
      <trkpt lat="50.623826" lon="6.458691">
        <ele>317.850000</ele>
        <time>2009-09-01T08:33:13Z</time>
      </trkpt>
      <trkpt lat="50.623792" lon="6.458635">
        <ele>317.850000</ele>
        <time>2009-09-01T08:33:17Z</time>
      </trkpt>
      <trkpt lat="50.623751" lon="6.458586">
        <ele>318.330000</ele>
        <time>2009-09-01T08:33:20Z</time>
      </trkpt>
      <trkpt lat="50.623621" lon="6.458348">
        <ele>319.300000</ele>
        <time>2009-09-01T08:33:34Z</time>
      </trkpt>
      <trkpt lat="50.623496" lon="6.458154">
        <ele>320.260000</ele>
        <time>2009-09-01T08:33:47Z</time>
      </trkpt>
      <trkpt lat="50.623402" lon="6.458035">
        <ele>320.740000</ele>
        <time>2009-09-01T08:33:54Z</time>
      </trkpt>
      <trkpt lat="50.623325" lon="6.457903">
        <ele>320.740000</ele>
        <time>2009-09-01T08:34:02Z</time>
      </trkpt>
      <trkpt lat="50.623309" lon="6.457849">
        <ele>320.740000</ele>
        <time>2009-09-01T08:34:06Z</time>
      </trkpt>
      <trkpt lat="50.623188" lon="6.457596">
        <ele>321.220000</ele>
        <time>2009-09-01T08:34:19Z</time>
      </trkpt>
      <trkpt lat="50.623101" lon="6.457298">
        <ele>322.180000</ele>
        <time>2009-09-01T08:34:32Z</time>
      </trkpt>
      <trkpt lat="50.623070" lon="6.457132">
        <ele>323.140000</ele>
        <time>2009-09-01T08:34:43Z</time>
      </trkpt>
      <trkpt lat="50.623165" lon="6.457123">
        <ele>323.140000</ele>
        <time>2009-09-01T08:34:54Z</time>
      </trkpt>
      <trkpt lat="50.623519" lon="6.457142">
        <ele>323.140000</ele>
        <time>2009-09-01T08:35:07Z</time>
      </trkpt>
      <trkpt lat="50.623526" lon="6.457174">
        <ele>323.140000</ele>
        <time>2009-09-01T08:35:09Z</time>
      </trkpt>
      <trkpt lat="50.623734" lon="6.457343">
        <ele>323.140000</ele>
        <time>2009-09-01T08:35:22Z</time>
      </trkpt>
      <trkpt lat="50.623840" lon="6.457499">
        <ele>323.140000</ele>
        <time>2009-09-01T08:35:30Z</time>
      </trkpt>
      <trkpt lat="50.623946" lon="6.457688">
        <ele>323.620000</ele>
        <time>2009-09-01T08:35:39Z</time>
      </trkpt>
      <trkpt lat="50.624027" lon="6.457892">
        <ele>324.100000</ele>
        <time>2009-09-01T08:35:51Z</time>
      </trkpt>
      <trkpt lat="50.624062" lon="6.457974">
        <ele>324.580000</ele>
        <time>2009-09-01T08:35:56Z</time>
      </trkpt>
      <trkpt lat="50.624207" lon="6.458152">
        <ele>324.100000</ele>
        <time>2009-09-01T08:36:08Z</time>
      </trkpt>
      <trkpt lat="50.624316" lon="6.458231">
        <ele>324.580000</ele>
        <time>2009-09-01T08:36:17Z</time>
      </trkpt>
      <trkpt lat="50.624362" lon="6.458266">
        <ele>324.580000</ele>
        <time>2009-09-01T08:36:20Z</time>
      </trkpt>
      <trkpt lat="50.624473" lon="6.458370">
        <ele>325.060000</ele>
        <time>2009-09-01T08:36:26Z</time>
      </trkpt>
      <trkpt lat="50.624578" lon="6.458476">
        <ele>325.060000</ele>
        <time>2009-09-01T08:36:35Z</time>
      </trkpt>
      <trkpt lat="50.624681" lon="6.458517">
        <ele>325.540000</ele>
        <time>2009-09-01T08:36:42Z</time>
      </trkpt>
      <trkpt lat="50.624761" lon="6.458572">
        <ele>326.500000</ele>
        <time>2009-09-01T08:36:49Z</time>
      </trkpt>
      <trkpt lat="50.624887" lon="6.458667">
        <ele>326.990000</ele>
        <time>2009-09-01T08:36:55Z</time>
      </trkpt>
      <trkpt lat="50.624930" lon="6.458791">
        <ele>327.470000</ele>
        <time>2009-09-01T08:37:01Z</time>
      </trkpt>
      <trkpt lat="50.625020" lon="6.459067">
        <ele>328.430000</ele>
        <time>2009-09-01T08:37:15Z</time>
      </trkpt>
      <trkpt lat="50.625027" lon="6.459110">
        <ele>328.910000</ele>
        <time>2009-09-01T08:37:17Z</time>
      </trkpt>
      <trkpt lat="50.625211" lon="6.459297">
        <ele>330.350000</ele>
        <time>2009-09-01T08:37:34Z</time>
      </trkpt>
      <trkpt lat="50.625366" lon="6.459468">
        <ele>331.310000</ele>
        <time>2009-09-01T08:37:47Z</time>
      </trkpt>
      <trkpt lat="50.625389" lon="6.459536">
        <ele>331.310000</ele>
        <time>2009-09-01T08:37:51Z</time>
      </trkpt>
      <trkpt lat="50.625414" lon="6.459701">
        <ele>331.790000</ele>
        <time>2009-09-01T08:37:59Z</time>
      </trkpt>
      <trkpt lat="50.625480" lon="6.459914">
        <ele>333.230000</ele>
        <time>2009-09-01T08:38:12Z</time>
      </trkpt>
      <trkpt lat="50.625520" lon="6.459977">
        <ele>333.710000</ele>
        <time>2009-09-01T08:38:18Z</time>
      </trkpt>
      <trkpt lat="50.625680" lon="6.460091">
        <ele>334.680000</ele>
        <time>2009-09-01T08:38:28Z</time>
      </trkpt>
      <trkpt lat="50.625859" lon="6.460160">
        <ele>334.680000</ele>
        <time>2009-09-01T08:38:41Z</time>
      </trkpt>
      <trkpt lat="50.626033" lon="6.460331">
        <ele>335.160000</ele>
        <time>2009-09-01T08:38:53Z</time>
      </trkpt>
      <trkpt lat="50.626104" lon="6.460418">
        <ele>334.680000</ele>
        <time>2009-09-01T08:38:59Z</time>
      </trkpt>
      <trkpt lat="50.626222" lon="6.460599">
        <ele>335.160000</ele>
        <time>2009-09-01T08:39:12Z</time>
      </trkpt>
      <trkpt lat="50.626217" lon="6.460652">
        <ele>335.160000</ele>
        <time>2009-09-01T08:39:15Z</time>
      </trkpt>
      <trkpt lat="50.626256" lon="6.460707">
        <ele>335.160000</ele>
        <time>2009-09-01T08:39:19Z</time>
      </trkpt>
      <trkpt lat="50.626475" lon="6.460722">
        <ele>334.680000</ele>
        <time>2009-09-01T08:39:32Z</time>
      </trkpt>
      <trkpt lat="50.626479" lon="6.460723">
        <ele>334.680000</ele>
        <time>2009-09-01T08:39:33Z</time>
      </trkpt>
      <trkpt lat="50.626586" lon="6.460645">
        <ele>334.200000</ele>
        <time>2009-09-01T08:39:46Z</time>
      </trkpt>
      <trkpt lat="50.626561" lon="6.460503">
        <ele>335.640000</ele>
        <time>2009-09-01T08:40:03Z</time>
      </trkpt>
      <trkpt lat="50.626386" lon="6.460372">
        <ele>339.000000</ele>
        <time>2009-09-01T08:40:16Z</time>
      </trkpt>
      <trkpt lat="50.626365" lon="6.460294">
        <ele>339.480000</ele>
        <time>2009-09-01T08:40:21Z</time>
      </trkpt>
      <trkpt lat="50.626259" lon="6.460141">
        <ele>341.890000</ele>
        <time>2009-09-01T08:40:34Z</time>
      </trkpt>
      <trkpt lat="50.626255" lon="6.460126">
        <ele>342.370000</ele>
        <time>2009-09-01T08:40:36Z</time>
      </trkpt>
      <trkpt lat="50.626264" lon="6.460000">
        <ele>343.330000</ele>
        <time>2009-09-01T08:40:43Z</time>
      </trkpt>
      <trkpt lat="50.626183" lon="6.459907">
        <ele>345.250000</ele>
        <time>2009-09-01T08:40:55Z</time>
      </trkpt>
      <trkpt lat="50.626132" lon="6.459820">
        <ele>347.170000</ele>
        <time>2009-09-01T08:41:05Z</time>
      </trkpt>
      <trkpt lat="50.626038" lon="6.459653">
        <ele>350.540000</ele>
        <time>2009-09-01T08:41:24Z</time>
      </trkpt>
      <trkpt lat="50.625948" lon="6.459406">
        <ele>353.900000</ele>
        <time>2009-09-01T08:41:41Z</time>
      </trkpt>
      <trkpt lat="50.625925" lon="6.459326">
        <ele>354.860000</ele>
        <time>2009-09-01T08:41:48Z</time>
      </trkpt>
      <trkpt lat="50.625812" lon="6.458991">
        <ele>357.270000</ele>
        <time>2009-09-01T08:42:07Z</time>
      </trkpt>
      <trkpt lat="50.625770" lon="6.458914">
        <ele>358.230000</ele>
        <time>2009-09-01T08:42:14Z</time>
      </trkpt>
      <trkpt lat="50.625770" lon="6.458810">
        <ele>359.190000</ele>
        <time>2009-09-01T08:42:20Z</time>
      </trkpt>
      <trkpt lat="50.625697" lon="6.458698">
        <ele>360.630000</ele>
        <time>2009-09-01T08:42:31Z</time>
      </trkpt>
      <trkpt lat="50.625698" lon="6.458684">
        <ele>361.110000</ele>
        <time>2009-09-01T08:42:33Z</time>
      </trkpt>
      <trkpt lat="50.625672" lon="6.458610">
        <ele>362.550000</ele>
        <time>2009-09-01T08:42:37Z</time>
      </trkpt>
      <trkpt lat="50.625658" lon="6.458562">
        <ele>363.520000</ele>
        <time>2009-09-01T08:42:40Z</time>
      </trkpt>
      <trkpt lat="50.625640" lon="6.458330">
        <ele>365.920000</ele>
        <time>2009-09-01T08:42:54Z</time>
      </trkpt>
      <trkpt lat="50.625629" lon="6.458291">
        <ele>366.400000</ele>
        <time>2009-09-01T08:42:58Z</time>
      </trkpt>
      <trkpt lat="50.625609" lon="6.458257">
        <ele>366.400000</ele>
        <time>2009-09-01T08:43:00Z</time>
      </trkpt>
      <trkpt lat="50.625526" lon="6.458107">
        <ele>368.320000</ele>
        <time>2009-09-01T08:43:11Z</time>
      </trkpt>
      <trkpt lat="50.625484" lon="6.457963">
        <ele>370.730000</ele>
        <time>2009-09-01T08:43:23Z</time>
      </trkpt>
      <trkpt lat="50.625435" lon="6.457808">
        <ele>371.690000</ele>
        <time>2009-09-01T08:43:30Z</time>
      </trkpt>
      <trkpt lat="50.625393" lon="6.457655">
        <ele>373.610000</ele>
        <time>2009-09-01T08:43:43Z</time>
      </trkpt>
      <trkpt lat="50.625324" lon="6.457429">
        <ele>376.010000</ele>
        <time>2009-09-01T08:44:00Z</time>
      </trkpt>
      <trkpt lat="50.625311" lon="6.457343">
        <ele>376.490000</ele>
        <time>2009-09-01T08:44:04Z</time>
      </trkpt>
      <trkpt lat="50.625241" lon="6.457215">
        <ele>378.900000</ele>
        <time>2009-09-01T08:44:15Z</time>
      </trkpt>
      <trkpt lat="50.625180" lon="6.457025">
        <ele>381.300000</ele>
        <time>2009-09-01T08:44:30Z</time>
      </trkpt>
      <trkpt lat="50.625035" lon="6.456859">
        <ele>384.180000</ele>
        <time>2009-09-01T08:44:49Z</time>
      </trkpt>
      <trkpt lat="50.624984" lon="6.456650">
        <ele>387.550000</ele>
        <time>2009-09-01T08:45:04Z</time>
      </trkpt>
      <trkpt lat="50.624846" lon="6.456457">
        <ele>389.470000</ele>
        <time>2009-09-01T08:45:20Z</time>
      </trkpt>
      <trkpt lat="50.624790" lon="6.456213">
        <ele>392.840000</ele>
        <time>2009-09-01T08:45:39Z</time>
      </trkpt>
      <trkpt lat="50.624657" lon="6.455904">
        <ele>395.720000</ele>
        <time>2009-09-01T08:46:02Z</time>
      </trkpt>
      <trkpt lat="50.624532" lon="6.455756">
        <ele>399.080000</ele>
        <time>2009-09-01T08:46:22Z</time>
      </trkpt>
      <trkpt lat="50.624470" lon="6.455674">
        <ele>401.970000</ele>
        <time>2009-09-01T08:46:38Z</time>
      </trkpt>
      <trkpt lat="50.624291" lon="6.455392">
        <ele>404.370000</ele>
        <time>2009-09-01T08:46:53Z</time>
      </trkpt>
      <trkpt lat="50.624239" lon="6.455127">
        <ele>406.770000</ele>
        <time>2009-09-01T08:47:10Z</time>
      </trkpt>
      <trkpt lat="50.624174" lon="6.454928">
        <ele>408.700000</ele>
        <time>2009-09-01T08:47:23Z</time>
      </trkpt>
      <trkpt lat="50.624168" lon="6.454851">
        <ele>409.180000</ele>
        <time>2009-09-01T08:47:25Z</time>
      </trkpt>
      <trkpt lat="50.624118" lon="6.454731">
        <ele>410.620000</ele>
        <time>2009-09-01T08:47:36Z</time>
      </trkpt>
      <trkpt lat="50.624095" lon="6.454575">
        <ele>412.060000</ele>
        <time>2009-09-01T08:47:53Z</time>
      </trkpt>
      <trkpt lat="50.624023" lon="6.454382">
        <ele>413.980000</ele>
        <time>2009-09-01T08:48:05Z</time>
      </trkpt>
      <trkpt lat="50.624019" lon="6.454125">
        <ele>416.390000</ele>
        <time>2009-09-01T08:48:21Z</time>
      </trkpt>
      <trkpt lat="50.623869" lon="6.453831">
        <ele>418.790000</ele>
        <time>2009-09-01T08:48:39Z</time>
      </trkpt>
      <trkpt lat="50.623768" lon="6.453532">
        <ele>421.680000</ele>
        <time>2009-09-01T08:48:57Z</time>
      </trkpt>
      <trkpt lat="50.623765" lon="6.453241">
        <ele>424.560000</ele>
        <time>2009-09-01T08:49:15Z</time>
      </trkpt>
      <trkpt lat="50.623719" lon="6.452945">
        <ele>427.440000</ele>
        <time>2009-09-01T08:49:35Z</time>
      </trkpt>
      <trkpt lat="50.623707" lon="6.452499">
        <ele>429.370000</ele>
        <time>2009-09-01T08:49:56Z</time>
      </trkpt>
      <trkpt lat="50.623632" lon="6.452024">
        <ele>431.770000</ele>
        <time>2009-09-01T08:50:22Z</time>
      </trkpt>
      <trkpt lat="50.623596" lon="6.451814">
        <ele>433.210000</ele>
        <time>2009-09-01T08:50:44Z</time>
      </trkpt>
      <trkpt lat="50.623536" lon="6.451645">
        <ele>435.610000</ele>
        <time>2009-09-01T08:51:00Z</time>
      </trkpt>
      <trkpt lat="50.623433" lon="6.451435">
        <ele>438.980000</ele>
        <time>2009-09-01T08:51:16Z</time>
      </trkpt>
      <trkpt lat="50.623357" lon="6.451174">
        <ele>441.380000</ele>
        <time>2009-09-01T08:51:37Z</time>
      </trkpt>
      <trkpt lat="50.623268" lon="6.451062">
        <ele>441.860000</ele>
        <time>2009-09-01T08:51:49Z</time>
      </trkpt>
      <trkpt lat="50.623228" lon="6.451082">
        <ele>442.340000</ele>
        <time>2009-09-01T08:51:53Z</time>
      </trkpt>
      <trkpt lat="50.623184" lon="6.451032">
        <ele>442.340000</ele>
        <time>2009-09-01T08:51:58Z</time>
      </trkpt>
      <trkpt lat="50.623146" lon="6.451052">
        <ele>442.340000</ele>
        <time>2009-09-01T08:52:01Z</time>
      </trkpt>
      <trkpt lat="50.623004" lon="6.451058">
        <ele>441.860000</ele>
        <time>2009-09-01T08:52:13Z</time>
      </trkpt>
      <trkpt lat="50.622808" lon="6.451074">
        <ele>443.790000</ele>
        <time>2009-09-01T08:52:25Z</time>
      </trkpt>
      <trkpt lat="50.622647" lon="6.451088">
        <ele>444.270000</ele>
        <time>2009-09-01T08:52:37Z</time>
      </trkpt>
      <trkpt lat="50.622562" lon="6.451177">
        <ele>445.230000</ele>
        <time>2009-09-01T08:52:49Z</time>
      </trkpt>
      <trkpt lat="50.622306" lon="6.451242">
        <ele>446.670000</ele>
        <time>2009-09-01T08:53:04Z</time>
      </trkpt>
      <trkpt lat="50.622113" lon="6.451230">
        <ele>448.110000</ele>
        <time>2009-09-01T08:53:24Z</time>
      </trkpt>
      <trkpt lat="50.621847" lon="6.451185">
        <ele>449.070000</ele>
        <time>2009-09-01T08:53:42Z</time>
      </trkpt>
      <trkpt lat="50.621593" lon="6.451096">
        <ele>450.520000</ele>
        <time>2009-09-01T08:54:02Z</time>
      </trkpt>
      <trkpt lat="50.621450" lon="6.450986">
        <ele>451.960000</ele>
        <time>2009-09-01T08:54:16Z</time>
      </trkpt>
      <trkpt lat="50.621157" lon="6.450808">
        <ele>453.880000</ele>
        <time>2009-09-01T08:54:38Z</time>
      </trkpt>
      <trkpt lat="50.620967" lon="6.450786">
        <ele>455.320000</ele>
        <time>2009-09-01T08:54:57Z</time>
      </trkpt>
      <trkpt lat="50.620846" lon="6.450779">
        <ele>456.280000</ele>
        <time>2009-09-01T08:55:11Z</time>
      </trkpt>
      <trkpt lat="50.620782" lon="6.450696">
        <ele>458.210000</ele>
        <time>2009-09-01T08:55:28Z</time>
      </trkpt>
      <trkpt lat="50.620592" lon="6.450710">
        <ele>459.170000</ele>
        <time>2009-09-01T08:55:44Z</time>
      </trkpt>
      <trkpt lat="50.620447" lon="6.450779">
        <ele>459.650000</ele>
        <time>2009-09-01T08:55:51Z</time>
      </trkpt>
      <trkpt lat="50.620360" lon="6.450883">
        <ele>460.130000</ele>
        <time>2009-09-01T08:56:04Z</time>
      </trkpt>
      <trkpt lat="50.620122" lon="6.451086">
        <ele>461.570000</ele>
        <time>2009-09-01T08:56:23Z</time>
      </trkpt>
      <trkpt lat="50.620002" lon="6.451092">
        <ele>462.530000</ele>
        <time>2009-09-01T08:56:33Z</time>
      </trkpt>
      <trkpt lat="50.619680" lon="6.451143">
        <ele>463.490000</ele>
        <time>2009-09-01T08:56:53Z</time>
      </trkpt>
      <trkpt lat="50.619645" lon="6.451193">
        <ele>463.970000</ele>
        <time>2009-09-01T08:56:58Z</time>
      </trkpt>
      <trkpt lat="50.619597" lon="6.451237">
        <ele>464.450000</ele>
        <time>2009-09-01T08:57:01Z</time>
      </trkpt>
      <trkpt lat="50.619403" lon="6.451493">
        <ele>465.900000</ele>
        <time>2009-09-01T08:57:21Z</time>
      </trkpt>
      <trkpt lat="50.619292" lon="6.451603">
        <ele>466.860000</ele>
        <time>2009-09-01T08:57:31Z</time>
      </trkpt>
      <trkpt lat="50.618985" lon="6.451789">
        <ele>468.300000</ele>
        <time>2009-09-01T08:57:52Z</time>
      </trkpt>
      <trkpt lat="50.618752" lon="6.451865">
        <ele>469.260000</ele>
        <time>2009-09-01T08:58:11Z</time>
      </trkpt>
      <trkpt lat="50.618607" lon="6.451900">
        <ele>470.700000</ele>
        <time>2009-09-01T08:58:24Z</time>
      </trkpt>
      <trkpt lat="50.618377" lon="6.451991">
        <ele>472.140000</ele>
        <time>2009-09-01T08:58:39Z</time>
      </trkpt>
      <trkpt lat="50.618260" lon="6.452094">
        <ele>473.110000</ele>
        <time>2009-09-01T08:58:51Z</time>
      </trkpt>
      <trkpt lat="50.618122" lon="6.452092">
        <ele>474.550000</ele>
        <time>2009-09-01T08:59:11Z</time>
      </trkpt>
      <trkpt lat="50.617880" lon="6.452128">
        <ele>476.470000</ele>
        <time>2009-09-01T08:59:31Z</time>
      </trkpt>
      <trkpt lat="50.617744" lon="6.452058">
        <ele>476.470000</ele>
        <time>2009-09-01T08:59:40Z</time>
      </trkpt>
      <trkpt lat="50.617624" lon="6.452019">
        <ele>476.950000</ele>
        <time>2009-09-01T08:59:52Z</time>
      </trkpt>
      <trkpt lat="50.617473" lon="6.451944">
        <ele>478.390000</ele>
        <time>2009-09-01T09:00:03Z</time>
      </trkpt>
      <trkpt lat="50.617345" lon="6.451820">
        <ele>479.350000</ele>
        <time>2009-09-01T09:00:16Z</time>
      </trkpt>
      <trkpt lat="50.617190" lon="6.451725">
        <ele>480.320000</ele>
        <time>2009-09-01T09:00:28Z</time>
      </trkpt>
      <trkpt lat="50.616980" lon="6.451572">
        <ele>481.760000</ele>
        <time>2009-09-01T09:00:44Z</time>
      </trkpt>
      <trkpt lat="50.616798" lon="6.451339">
        <ele>483.680000</ele>
        <time>2009-09-01T09:01:06Z</time>
      </trkpt>
      <trkpt lat="50.616555" lon="6.451233">
        <ele>485.600000</ele>
        <time>2009-09-01T09:01:22Z</time>
      </trkpt>
      <trkpt lat="50.616319" lon="6.451121">
        <ele>487.530000</ele>
        <time>2009-09-01T09:01:44Z</time>
      </trkpt>
      <trkpt lat="50.616098" lon="6.451003">
        <ele>489.450000</ele>
        <time>2009-09-01T09:02:04Z</time>
      </trkpt>
      <trkpt lat="50.615803" lon="6.450893">
        <ele>490.890000</ele>
        <time>2009-09-01T09:02:25Z</time>
      </trkpt>
      <trkpt lat="50.615993" lon="6.450667">
        <ele>492.810000</ele>
        <time>2009-09-01T09:02:44Z</time>
      </trkpt>
      <trkpt lat="50.616314" lon="6.450586">
        <ele>494.260000</ele>
        <time>2009-09-01T09:03:08Z</time>
      </trkpt>
      <trkpt lat="50.616630" lon="6.450689">
        <ele>495.700000</ele>
        <time>2009-09-01T09:03:28Z</time>
      </trkpt>
      <trkpt lat="50.616835" lon="6.450705">
        <ele>496.180000</ele>
        <time>2009-09-01T09:03:41Z</time>
      </trkpt>
      <trkpt lat="50.617020" lon="6.450613">
        <ele>496.660000</ele>
        <time>2009-09-01T09:04:00Z</time>
      </trkpt>
      <trkpt lat="50.617230" lon="6.450421">
        <ele>496.660000</ele>
        <time>2009-09-01T09:04:20Z</time>
      </trkpt>
      <trkpt lat="50.617441" lon="6.450259">
        <ele>496.660000</ele>
        <time>2009-09-01T09:04:40Z</time>
      </trkpt>
      <trkpt lat="50.617654" lon="6.450158">
        <ele>496.180000</ele>
        <time>2009-09-01T09:04:59Z</time>
      </trkpt>
      <trkpt lat="50.618003" lon="6.450322">
        <ele>496.180000</ele>
        <time>2009-09-01T09:05:23Z</time>
      </trkpt>
      <trkpt lat="50.618291" lon="6.450265">
        <ele>496.180000</ele>
        <time>2009-09-01T09:05:42Z</time>
      </trkpt>
      <trkpt lat="50.618360" lon="6.450196">
        <ele>496.180000</ele>
        <time>2009-09-01T09:05:50Z</time>
      </trkpt>
      <trkpt lat="50.618506" lon="6.449845">
        <ele>494.740000</ele>
        <time>2009-09-01T09:06:06Z</time>
      </trkpt>
      <trkpt lat="50.618519" lon="6.449701">
        <ele>494.260000</ele>
        <time>2009-09-01T09:06:17Z</time>
      </trkpt>
      <trkpt lat="50.618547" lon="6.449501">
        <ele>493.770000</ele>
        <time>2009-09-01T09:06:33Z</time>
      </trkpt>
      <trkpt lat="50.618501" lon="6.449108">
        <ele>492.810000</ele>
        <time>2009-09-01T09:06:53Z</time>
      </trkpt>
      <trkpt lat="50.618526" lon="6.449065">
        <ele>492.810000</ele>
        <time>2009-09-01T09:06:55Z</time>
      </trkpt>
      <trkpt lat="50.618546" lon="6.448977">
        <ele>492.330000</ele>
        <time>2009-09-01T09:06:59Z</time>
      </trkpt>
      <trkpt lat="50.618572" lon="6.448643">
        <ele>491.370000</ele>
        <time>2009-09-01T09:07:16Z</time>
      </trkpt>
      <trkpt lat="50.618575" lon="6.448611">
        <ele>491.370000</ele>
        <time>2009-09-01T09:07:19Z</time>
      </trkpt>
      <trkpt lat="50.618604" lon="6.448521">
        <ele>491.370000</ele>
        <time>2009-09-01T09:07:22Z</time>
      </trkpt>
      <trkpt lat="50.618621" lon="6.448391">
        <ele>491.370000</ele>
        <time>2009-09-01T09:07:30Z</time>
      </trkpt>
      <trkpt lat="50.618631" lon="6.448155">
        <ele>490.890000</ele>
        <time>2009-09-01T09:07:40Z</time>
      </trkpt>
      <trkpt lat="50.618646" lon="6.447842">
        <ele>490.410000</ele>
        <time>2009-09-01T09:07:55Z</time>
      </trkpt>
      <trkpt lat="50.618641" lon="6.447763">
        <ele>490.890000</ele>
        <time>2009-09-01T09:08:00Z</time>
      </trkpt>
      <trkpt lat="50.618585" lon="6.447708">
        <ele>490.410000</ele>
        <time>2009-09-01T09:08:04Z</time>
      </trkpt>
      <trkpt lat="50.618510" lon="6.447667">
        <ele>490.890000</ele>
        <time>2009-09-01T09:08:12Z</time>
      </trkpt>
      <trkpt lat="50.618342" lon="6.447473">
        <ele>490.890000</ele>
        <time>2009-09-01T09:08:26Z</time>
      </trkpt>
      <trkpt lat="50.618275" lon="6.447434">
        <ele>491.370000</ele>
        <time>2009-09-01T09:08:31Z</time>
      </trkpt>
      <trkpt lat="50.618153" lon="6.447224">
        <ele>491.370000</ele>
        <time>2009-09-01T09:08:44Z</time>
      </trkpt>
      <trkpt lat="50.618044" lon="6.447042">
        <ele>491.850000</ele>
        <time>2009-09-01T09:08:55Z</time>
      </trkpt>
      <trkpt lat="50.618014" lon="6.446932">
        <ele>491.850000</ele>
        <time>2009-09-01T09:09:01Z</time>
      </trkpt>
      <trkpt lat="50.617994" lon="6.446890">
        <ele>492.330000</ele>
        <time>2009-09-01T09:09:04Z</time>
      </trkpt>
      <trkpt lat="50.617849" lon="6.446585">
        <ele>492.330000</ele>
        <time>2009-09-01T09:09:22Z</time>
      </trkpt>
      <trkpt lat="50.617760" lon="6.446395">
        <ele>492.810000</ele>
        <time>2009-09-01T09:09:34Z</time>
      </trkpt>
      <trkpt lat="50.617749" lon="6.446346">
        <ele>492.810000</ele>
        <time>2009-09-01T09:09:37Z</time>
      </trkpt>
      <trkpt lat="50.617646" lon="6.446170">
        <ele>493.770000</ele>
        <time>2009-09-01T09:09:49Z</time>
      </trkpt>
      <trkpt lat="50.617596" lon="6.445907">
        <ele>494.260000</ele>
        <time>2009-09-01T09:10:03Z</time>
      </trkpt>
      <trkpt lat="50.617436" lon="6.445705">
        <ele>495.220000</ele>
        <time>2009-09-01T09:10:17Z</time>
      </trkpt>
      <trkpt lat="50.617401" lon="6.445616">
        <ele>495.220000</ele>
        <time>2009-09-01T09:10:22Z</time>
      </trkpt>
      <trkpt lat="50.617332" lon="6.445408">
        <ele>496.180000</ele>
        <time>2009-09-01T09:10:34Z</time>
      </trkpt>
      <trkpt lat="50.617251" lon="6.445275">
        <ele>496.180000</ele>
        <time>2009-09-01T09:10:42Z</time>
      </trkpt>
      <trkpt lat="50.617078" lon="6.445038">
        <ele>496.180000</ele>
        <time>2009-09-01T09:10:56Z</time>
      </trkpt>
      <trkpt lat="50.617037" lon="6.444831">
        <ele>496.660000</ele>
        <time>2009-09-01T09:11:04Z</time>
      </trkpt>
      <trkpt lat="50.616849" lon="6.444590">
        <ele>497.140000</ele>
        <time>2009-09-01T09:11:20Z</time>
      </trkpt>
      <trkpt lat="50.616777" lon="6.444568">
        <ele>497.620000</ele>
        <time>2009-09-01T09:11:25Z</time>
      </trkpt>
      <trkpt lat="50.616765" lon="6.444525">
        <ele>497.620000</ele>
        <time>2009-09-01T09:11:27Z</time>
      </trkpt>
      <trkpt lat="50.616688" lon="6.444312">
        <ele>498.100000</ele>
        <time>2009-09-01T09:11:44Z</time>
      </trkpt>
      <trkpt lat="50.616498" lon="6.443926">
        <ele>498.580000</ele>
        <time>2009-09-01T09:12:09Z</time>
      </trkpt>
      <trkpt lat="50.616474" lon="6.443781">
        <ele>499.540000</ele>
        <time>2009-09-01T09:12:28Z</time>
      </trkpt>
      <trkpt lat="50.616305" lon="6.443459">
        <ele>499.060000</ele>
        <time>2009-09-01T09:12:53Z</time>
      </trkpt>
      <trkpt lat="50.616127" lon="6.443115">
        <ele>499.540000</ele>
        <time>2009-09-01T09:13:08Z</time>
      </trkpt>
      <trkpt lat="50.616026" lon="6.442925">
        <ele>500.020000</ele>
        <time>2009-09-01T09:13:22Z</time>
      </trkpt>
      <trkpt lat="50.615846" lon="6.442672">
        <ele>500.500000</ele>
        <time>2009-09-01T09:13:38Z</time>
      </trkpt>
      <trkpt lat="50.615743" lon="6.442562">
        <ele>501.950000</ele>
        <time>2009-09-01T09:13:49Z</time>
      </trkpt>
      <trkpt lat="50.615564" lon="6.442257">
        <ele>501.460000</ele>
        <time>2009-09-01T09:14:08Z</time>
      </trkpt>
      <trkpt lat="50.615523" lon="6.442191">
        <ele>501.460000</ele>
        <time>2009-09-01T09:14:12Z</time>
      </trkpt>
      <trkpt lat="50.615398" lon="6.441880">
        <ele>501.460000</ele>
        <time>2009-09-01T09:14:29Z</time>
      </trkpt>
      <trkpt lat="50.615339" lon="6.441718">
        <ele>502.430000</ele>
        <time>2009-09-01T09:14:42Z</time>
      </trkpt>
      <trkpt lat="50.615292" lon="6.441647">
        <ele>502.910000</ele>
        <time>2009-09-01T09:14:45Z</time>
      </trkpt>
      <trkpt lat="50.615275" lon="6.441612">
        <ele>502.910000</ele>
        <time>2009-09-01T09:14:49Z</time>
      </trkpt>
      <trkpt lat="50.615147" lon="6.441375">
        <ele>503.390000</ele>
        <time>2009-09-01T09:15:06Z</time>
      </trkpt>
      <trkpt lat="50.615139" lon="6.441303">
        <ele>503.390000</ele>
        <time>2009-09-01T09:15:11Z</time>
      </trkpt>
      <trkpt lat="50.615114" lon="6.441080">
        <ele>503.870000</ele>
        <time>2009-09-01T09:15:21Z</time>
      </trkpt>
      <trkpt lat="50.615127" lon="6.441036">
        <ele>503.870000</ele>
        <time>2009-09-01T09:15:23Z</time>
      </trkpt>
      <trkpt lat="50.615046" lon="6.440851">
        <ele>503.390000</ele>
        <time>2009-09-01T09:15:29Z</time>
      </trkpt>
      <trkpt lat="50.615036" lon="6.440483">
        <ele>501.950000</ele>
        <time>2009-09-01T09:15:45Z</time>
      </trkpt>
      <trkpt lat="50.615029" lon="6.440407">
        <ele>501.950000</ele>
        <time>2009-09-01T09:15:49Z</time>
      </trkpt>
      <trkpt lat="50.615030" lon="6.440186">
        <ele>500.020000</ele>
        <time>2009-09-01T09:15:59Z</time>
      </trkpt>
      <trkpt lat="50.615077" lon="6.439999">
        <ele>500.020000</ele>
        <time>2009-09-01T09:16:08Z</time>
      </trkpt>
      <trkpt lat="50.615098" lon="6.439925">
        <ele>500.020000</ele>
        <time>2009-09-01T09:16:13Z</time>
      </trkpt>
      <trkpt lat="50.615157" lon="6.439716">
        <ele>500.020000</ele>
        <time>2009-09-01T09:16:25Z</time>
      </trkpt>
      <trkpt lat="50.615172" lon="6.439676">
        <ele>500.020000</ele>
        <time>2009-09-01T09:16:27Z</time>
      </trkpt>
      <trkpt lat="50.615208" lon="6.439568">
        <ele>500.500000</ele>
        <time>2009-09-01T09:16:33Z</time>
      </trkpt>
      <trkpt lat="50.615223" lon="6.439502">
        <ele>500.020000</ele>
        <time>2009-09-01T09:16:36Z</time>
      </trkpt>
      <trkpt lat="50.615256" lon="6.439258">
        <ele>500.020000</ele>
        <time>2009-09-01T09:16:46Z</time>
      </trkpt>
      <trkpt lat="50.615267" lon="6.439124">
        <ele>500.020000</ele>
        <time>2009-09-01T09:16:53Z</time>
      </trkpt>
      <trkpt lat="50.615401" lon="6.438873">
        <ele>500.980000</ele>
        <time>2009-09-01T09:17:06Z</time>
      </trkpt>
      <trkpt lat="50.615422" lon="6.438710">
        <ele>500.980000</ele>
        <time>2009-09-01T09:17:18Z</time>
      </trkpt>
      <trkpt lat="50.615505" lon="6.438372">
        <ele>501.460000</ele>
        <time>2009-09-01T09:17:33Z</time>
      </trkpt>
      <trkpt lat="50.615568" lon="6.438114">
        <ele>501.950000</ele>
        <time>2009-09-01T09:17:45Z</time>
      </trkpt>
      <trkpt lat="50.615602" lon="6.437927">
        <ele>502.430000</ele>
        <time>2009-09-01T09:17:53Z</time>
      </trkpt>
      <trkpt lat="50.615681" lon="6.437700">
        <ele>503.870000</ele>
        <time>2009-09-01T09:18:06Z</time>
      </trkpt>
      <trkpt lat="50.615769" lon="6.437443">
        <ele>504.830000</ele>
        <time>2009-09-01T09:18:18Z</time>
      </trkpt>
      <trkpt lat="50.615781" lon="6.437347">
        <ele>505.310000</ele>
        <time>2009-09-01T09:18:22Z</time>
      </trkpt>
      <trkpt lat="50.615857" lon="6.437024">
        <ele>506.270000</ele>
        <time>2009-09-01T09:18:37Z</time>
      </trkpt>
      <trkpt lat="50.615899" lon="6.436797">
        <ele>506.270000</ele>
        <time>2009-09-01T09:18:50Z</time>
      </trkpt>
      <trkpt lat="50.615987" lon="6.436513">
        <ele>505.790000</ele>
        <time>2009-09-01T09:19:02Z</time>
      </trkpt>
      <trkpt lat="50.615998" lon="6.436492">
        <ele>505.790000</ele>
        <time>2009-09-01T09:19:03Z</time>
      </trkpt>
      <trkpt lat="50.616135" lon="6.436225">
        <ele>504.830000</ele>
        <time>2009-09-01T09:19:17Z</time>
      </trkpt>
      <trkpt lat="50.616213" lon="6.435970">
        <ele>503.870000</ele>
        <time>2009-09-01T09:19:29Z</time>
      </trkpt>
      <trkpt lat="50.616235" lon="6.435824">
        <ele>503.390000</ele>
        <time>2009-09-01T09:19:36Z</time>
      </trkpt>
      <trkpt lat="50.616244" lon="6.435791">
        <ele>502.910000</ele>
        <time>2009-09-01T09:19:38Z</time>
      </trkpt>
      <trkpt lat="50.616258" lon="6.435604">
        <ele>502.430000</ele>
        <time>2009-09-01T09:19:51Z</time>
      </trkpt>
      <trkpt lat="50.616406" lon="6.435387">
        <ele>501.460000</ele>
        <time>2009-09-01T09:20:03Z</time>
      </trkpt>
      <trkpt lat="50.616415" lon="6.435309">
        <ele>501.460000</ele>
        <time>2009-09-01T09:20:07Z</time>
      </trkpt>
      <trkpt lat="50.616451" lon="6.435253">
        <ele>500.980000</ele>
        <time>2009-09-01T09:20:12Z</time>
      </trkpt>
      <trkpt lat="50.616535" lon="6.434943">
        <ele>500.980000</ele>
        <time>2009-09-01T09:20:26Z</time>
      </trkpt>
      <trkpt lat="50.616553" lon="6.434581">
        <ele>501.460000</ele>
        <time>2009-09-01T09:20:37Z</time>
      </trkpt>
      <trkpt lat="50.616608" lon="6.434280">
        <ele>501.950000</ele>
        <time>2009-09-01T09:20:51Z</time>
      </trkpt>
      <trkpt lat="50.616701" lon="6.434010">
        <ele>501.460000</ele>
        <time>2009-09-01T09:21:05Z</time>
      </trkpt>
      <trkpt lat="50.616732" lon="6.433885">
        <ele>501.460000</ele>
        <time>2009-09-01T09:21:11Z</time>
      </trkpt>
      <trkpt lat="50.616785" lon="6.433577">
        <ele>501.950000</ele>
        <time>2009-09-01T09:21:25Z</time>
      </trkpt>
      <trkpt lat="50.616867" lon="6.433225">
        <ele>501.950000</ele>
        <time>2009-09-01T09:21:39Z</time>
      </trkpt>
      <trkpt lat="50.616935" lon="6.432914">
        <ele>501.460000</ele>
        <time>2009-09-01T09:21:53Z</time>
      </trkpt>
      <trkpt lat="50.617037" lon="6.432645">
        <ele>500.500000</ele>
        <time>2009-09-01T09:22:07Z</time>
      </trkpt>
      <trkpt lat="50.617117" lon="6.432322">
        <ele>499.540000</ele>
        <time>2009-09-01T09:22:22Z</time>
      </trkpt>
      <trkpt lat="50.617135" lon="6.432138">
        <ele>499.540000</ele>
        <time>2009-09-01T09:22:29Z</time>
      </trkpt>
      <trkpt lat="50.617163" lon="6.431785">
        <ele>499.060000</ele>
        <time>2009-09-01T09:22:43Z</time>
      </trkpt>
      <trkpt lat="50.617201" lon="6.431489">
        <ele>499.060000</ele>
        <time>2009-09-01T09:22:56Z</time>
      </trkpt>
      <trkpt lat="50.617159" lon="6.431395">
        <ele>499.060000</ele>
        <time>2009-09-01T09:23:00Z</time>
      </trkpt>
      <trkpt lat="50.617170" lon="6.431368">
        <ele>498.580000</ele>
        <time>2009-09-01T09:23:02Z</time>
      </trkpt>
      <trkpt lat="50.617122" lon="6.431198">
        <ele>498.100000</ele>
        <time>2009-09-01T09:23:08Z</time>
      </trkpt>
      <trkpt lat="50.617055" lon="6.430893">
        <ele>498.580000</ele>
        <time>2009-09-01T09:23:22Z</time>
      </trkpt>
      <trkpt lat="50.617057" lon="6.430861">
        <ele>498.580000</ele>
        <time>2009-09-01T09:23:23Z</time>
      </trkpt>
      <trkpt lat="50.617035" lon="6.430658">
        <ele>498.580000</ele>
        <time>2009-09-01T09:23:32Z</time>
      </trkpt>
      <trkpt lat="50.617030" lon="6.430346">
        <ele>499.540000</ele>
        <time>2009-09-01T09:23:46Z</time>
      </trkpt>
      <trkpt lat="50.616999" lon="6.430040">
        <ele>500.020000</ele>
        <time>2009-09-01T09:23:59Z</time>
      </trkpt>
      <trkpt lat="50.616998" lon="6.430020">
        <ele>500.020000</ele>
        <time>2009-09-01T09:24:00Z</time>
      </trkpt>
      <trkpt lat="50.617010" lon="6.429684">
        <ele>500.500000</ele>
        <time>2009-09-01T09:24:15Z</time>
      </trkpt>
      <trkpt lat="50.616997" lon="6.429660">
        <ele>500.980000</ele>
        <time>2009-09-01T09:24:16Z</time>
      </trkpt>
      <trkpt lat="50.617011" lon="6.429431">
        <ele>500.980000</ele>
        <time>2009-09-01T09:24:26Z</time>
      </trkpt>
      <trkpt lat="50.617008" lon="6.429250">
        <ele>500.500000</ele>
        <time>2009-09-01T09:24:34Z</time>
      </trkpt>
      <trkpt lat="50.617008" lon="6.429102">
        <ele>500.020000</ele>
        <time>2009-09-01T09:24:41Z</time>
      </trkpt>
      <trkpt lat="50.616978" lon="6.428703">
        <ele>499.540000</ele>
        <time>2009-09-01T09:24:57Z</time>
      </trkpt>
      <trkpt lat="50.617004" lon="6.428458">
        <ele>499.060000</ele>
        <time>2009-09-01T09:25:09Z</time>
      </trkpt>
      <trkpt lat="50.616970" lon="6.428252">
        <ele>499.540000</ele>
        <time>2009-09-01T09:25:18Z</time>
      </trkpt>
      <trkpt lat="50.616972" lon="6.428133">
        <ele>498.580000</ele>
        <time>2009-09-01T09:25:31Z</time>
      </trkpt>
      <trkpt lat="50.617001" lon="6.428117">
        <ele>500.020000</ele>
        <time>2009-09-01T09:26:07Z</time>
      </trkpt>
      <trkpt lat="50.616981" lon="6.428035">
        <ele>500.500000</ele>
        <time>2009-09-01T09:26:12Z</time>
      </trkpt>
      <trkpt lat="50.616957" lon="6.427929">
        <ele>500.500000</ele>
        <time>2009-09-01T09:26:15Z</time>
      </trkpt>
      <trkpt lat="50.616927" lon="6.427663">
        <ele>500.020000</ele>
        <time>2009-09-01T09:26:26Z</time>
      </trkpt>
      <trkpt lat="50.616886" lon="6.427447">
        <ele>500.500000</ele>
        <time>2009-09-01T09:26:36Z</time>
      </trkpt>
      <trkpt lat="50.616896" lon="6.427135">
        <ele>500.980000</ele>
        <time>2009-09-01T09:26:51Z</time>
      </trkpt>
      <trkpt lat="50.616912" lon="6.427057">
        <ele>500.980000</ele>
        <time>2009-09-01T09:26:55Z</time>
      </trkpt>
      <trkpt lat="50.616903" lon="6.426727">
        <ele>500.980000</ele>
        <time>2009-09-01T09:27:09Z</time>
      </trkpt>
      <trkpt lat="50.616914" lon="6.426510">
        <ele>501.460000</ele>
        <time>2009-09-01T09:27:19Z</time>
      </trkpt>
      <trkpt lat="50.616944" lon="6.426124">
        <ele>501.460000</ele>
        <time>2009-09-01T09:27:35Z</time>
      </trkpt>
      <trkpt lat="50.616984" lon="6.425877">
        <ele>501.950000</ele>
        <time>2009-09-01T09:27:47Z</time>
      </trkpt>
      <trkpt lat="50.617067" lon="6.425555">
        <ele>502.430000</ele>
        <time>2009-09-01T09:27:59Z</time>
      </trkpt>
      <trkpt lat="50.617082" lon="6.425415">
        <ele>502.910000</ele>
        <time>2009-09-01T09:28:05Z</time>
      </trkpt>
      <trkpt lat="50.617099" lon="6.425305">
        <ele>502.910000</ele>
        <time>2009-09-01T09:28:10Z</time>
      </trkpt>
      <trkpt lat="50.617162" lon="6.424968">
        <ele>503.390000</ele>
        <time>2009-09-01T09:28:25Z</time>
      </trkpt>
      <trkpt lat="50.617202" lon="6.424668">
        <ele>503.390000</ele>
        <time>2009-09-01T09:28:38Z</time>
      </trkpt>
      <trkpt lat="50.617207" lon="6.424593">
        <ele>503.870000</ele>
        <time>2009-09-01T09:28:41Z</time>
      </trkpt>
      <trkpt lat="50.617239" lon="6.424282">
        <ele>504.350000</ele>
        <time>2009-09-01T09:28:53Z</time>
      </trkpt>
      <trkpt lat="50.617408" lon="6.424072">
        <ele>504.830000</ele>
        <time>2009-09-01T09:29:04Z</time>
      </trkpt>
      <trkpt lat="50.617515" lon="6.423797">
        <ele>505.790000</ele>
        <time>2009-09-01T09:29:19Z</time>
      </trkpt>
      <trkpt lat="50.617522" lon="6.423786">
        <ele>505.790000</ele>
        <time>2009-09-01T09:29:20Z</time>
      </trkpt>
      <trkpt lat="50.617642" lon="6.423628">
        <ele>506.270000</ele>
        <time>2009-09-01T09:29:33Z</time>
      </trkpt>
      <trkpt lat="50.617899" lon="6.423362">
        <ele>508.190000</ele>
        <time>2009-09-01T09:29:58Z</time>
      </trkpt>
      <trkpt lat="50.618038" lon="6.423259">
        <ele>508.670000</ele>
        <time>2009-09-01T09:30:18Z</time>
      </trkpt>
      <trkpt lat="50.618294" lon="6.423072">
        <ele>511.080000</ele>
        <time>2009-09-01T09:30:55Z</time>
      </trkpt>
      <trkpt lat="50.618481" lon="6.422873">
        <ele>512.520000</ele>
        <time>2009-09-01T09:31:03Z</time>
      </trkpt>
      <trkpt lat="50.618719" lon="6.422606">
        <ele>513.000000</ele>
        <time>2009-09-01T09:31:14Z</time>
      </trkpt>
      <trkpt lat="50.618749" lon="6.422265">
        <ele>513.000000</ele>
        <time>2009-09-01T09:31:31Z</time>
      </trkpt>
      <trkpt lat="50.618740" lon="6.421823">
        <ele>513.480000</ele>
        <time>2009-09-01T09:31:49Z</time>
      </trkpt>
      <trkpt lat="50.618737" lon="6.421796">
        <ele>513.480000</ele>
        <time>2009-09-01T09:31:50Z</time>
      </trkpt>
      <trkpt lat="50.618675" lon="6.421381">
        <ele>513.960000</ele>
        <time>2009-09-01T09:32:04Z</time>
      </trkpt>
      <trkpt lat="50.618613" lon="6.421085">
        <ele>513.960000</ele>
        <time>2009-09-01T09:32:16Z</time>
      </trkpt>
      <trkpt lat="50.618555" lon="6.420893">
        <ele>514.440000</ele>
        <time>2009-09-01T09:32:24Z</time>
      </trkpt>
      <trkpt lat="50.618554" lon="6.420667">
        <ele>513.960000</ele>
        <time>2009-09-01T09:32:32Z</time>
      </trkpt>
      <trkpt lat="50.618525" lon="6.420259">
        <ele>513.480000</ele>
        <time>2009-09-01T09:32:46Z</time>
      </trkpt>
      <trkpt lat="50.618517" lon="6.419850">
        <ele>513.480000</ele>
        <time>2009-09-01T09:32:56Z</time>
      </trkpt>
      <trkpt lat="50.618505" lon="6.419431">
        <ele>513.000000</ele>
        <time>2009-09-01T09:33:05Z</time>
      </trkpt>
      <trkpt lat="50.618494" lon="6.419280">
        <ele>513.000000</ele>
        <time>2009-09-01T09:33:09Z</time>
      </trkpt>
      <trkpt lat="50.618495" lon="6.419192">
        <ele>512.520000</ele>
        <time>2009-09-01T09:33:12Z</time>
      </trkpt>
      <trkpt lat="50.618481" lon="6.419086">
        <ele>512.520000</ele>
        <time>2009-09-01T09:33:17Z</time>
      </trkpt>
      <trkpt lat="50.618473" lon="6.419030">
        <ele>512.520000</ele>
        <time>2009-09-01T09:33:19Z</time>
      </trkpt>
      <trkpt lat="50.618477" lon="6.418842">
        <ele>512.040000</ele>
        <time>2009-09-01T09:33:27Z</time>
      </trkpt>
      <trkpt lat="50.618438" lon="6.418661">
        <ele>512.040000</ele>
        <time>2009-09-01T09:33:34Z</time>
      </trkpt>
      <trkpt lat="50.618454" lon="6.418521">
        <ele>511.560000</ele>
        <time>2009-09-01T09:33:40Z</time>
      </trkpt>
      <trkpt lat="50.618408" lon="6.418229">
        <ele>511.080000</ele>
        <time>2009-09-01T09:33:52Z</time>
      </trkpt>
      <trkpt lat="50.618381" lon="6.417829">
        <ele>510.600000</ele>
        <time>2009-09-01T09:34:04Z</time>
      </trkpt>
      <trkpt lat="50.618381" lon="6.417794">
        <ele>510.600000</ele>
        <time>2009-09-01T09:34:05Z</time>
      </trkpt>
      <trkpt lat="50.618370" lon="6.417615">
        <ele>509.640000</ele>
        <time>2009-09-01T09:34:10Z</time>
      </trkpt>
      <trkpt lat="50.618348" lon="6.417492">
        <ele>509.640000</ele>
        <time>2009-09-01T09:34:14Z</time>
      </trkpt>
      <trkpt lat="50.618377" lon="6.417361">
        <ele>509.640000</ele>
        <time>2009-09-01T09:34:19Z</time>
      </trkpt>
      <trkpt lat="50.618390" lon="6.417217">
        <ele>509.160000</ele>
        <time>2009-09-01T09:34:24Z</time>
      </trkpt>
      <trkpt lat="50.618388" lon="6.417081">
        <ele>508.670000</ele>
        <time>2009-09-01T09:34:30Z</time>
      </trkpt>
      <trkpt lat="50.618446" lon="6.416850">
        <ele>507.710000</ele>
        <time>2009-09-01T09:34:40Z</time>
      </trkpt>
      <trkpt lat="50.618493" lon="6.416795">
        <ele>507.710000</ele>
        <time>2009-09-01T09:34:42Z</time>
      </trkpt>
      <trkpt lat="50.618561" lon="6.416536">
        <ele>506.270000</ele>
        <time>2009-09-01T09:34:54Z</time>
      </trkpt>
      <trkpt lat="50.618561" lon="6.416306">
        <ele>505.790000</ele>
        <time>2009-09-01T09:35:02Z</time>
      </trkpt>
      <trkpt lat="50.618605" lon="6.416186">
        <ele>505.790000</ele>
        <time>2009-09-01T09:35:07Z</time>
      </trkpt>
      <trkpt lat="50.618625" lon="6.415962">
        <ele>505.310000</ele>
        <time>2009-09-01T09:35:14Z</time>
      </trkpt>
      <trkpt lat="50.618678" lon="6.415801">
        <ele>504.830000</ele>
        <time>2009-09-01T09:35:20Z</time>
      </trkpt>
      <trkpt lat="50.618672" lon="6.415692">
        <ele>504.350000</ele>
        <time>2009-09-01T09:35:26Z</time>
      </trkpt>
      <trkpt lat="50.618746" lon="6.415210">
        <ele>502.430000</ele>
        <time>2009-09-01T09:35:40Z</time>
      </trkpt>
      <trkpt lat="50.618747" lon="6.414969">
        <ele>501.950000</ele>
        <time>2009-09-01T09:35:48Z</time>
      </trkpt>
      <trkpt lat="50.618823" lon="6.414616">
        <ele>501.950000</ele>
        <time>2009-09-01T09:35:55Z</time>
      </trkpt>
      <trkpt lat="50.618899" lon="6.414416">
        <ele>501.460000</ele>
        <time>2009-09-01T09:36:04Z</time>
      </trkpt>
      <trkpt lat="50.618926" lon="6.414190">
        <ele>500.980000</ele>
        <time>2009-09-01T09:36:15Z</time>
      </trkpt>
      <trkpt lat="50.618935" lon="6.413798">
        <ele>500.980000</ele>
        <time>2009-09-01T09:36:29Z</time>
      </trkpt>
      <trkpt lat="50.618895" lon="6.413433">
        <ele>500.500000</ele>
        <time>2009-09-01T09:36:43Z</time>
      </trkpt>
      <trkpt lat="50.618883" lon="6.413384">
        <ele>500.500000</ele>
        <time>2009-09-01T09:36:45Z</time>
      </trkpt>
      <trkpt lat="50.618856" lon="6.413184">
        <ele>500.500000</ele>
        <time>2009-09-01T09:36:54Z</time>
      </trkpt>
      <trkpt lat="50.618841" lon="6.412981">
        <ele>500.500000</ele>
        <time>2009-09-01T09:36:58Z</time>
      </trkpt>
      <trkpt lat="50.618873" lon="6.412741">
        <ele>500.980000</ele>
        <time>2009-09-01T09:37:10Z</time>
      </trkpt>
      <trkpt lat="50.618835" lon="6.412426">
        <ele>500.980000</ele>
        <time>2009-09-01T09:37:21Z</time>
      </trkpt>
      <trkpt lat="50.618830" lon="6.412261">
        <ele>501.460000</ele>
        <time>2009-09-01T09:37:27Z</time>
      </trkpt>
      <trkpt lat="50.618878" lon="6.411942">
        <ele>500.980000</ele>
        <time>2009-09-01T09:37:38Z</time>
      </trkpt>
      <trkpt lat="50.618871" lon="6.411820">
        <ele>501.460000</ele>
        <time>2009-09-01T09:37:42Z</time>
      </trkpt>
      <trkpt lat="50.618876" lon="6.411652">
        <ele>501.460000</ele>
        <time>2009-09-01T09:37:49Z</time>
      </trkpt>
      <trkpt lat="50.618874" lon="6.411205">
        <ele>501.460000</ele>
        <time>2009-09-01T09:38:03Z</time>
      </trkpt>
      <trkpt lat="50.618964" lon="6.410790">
        <ele>500.980000</ele>
        <time>2009-09-01T09:38:14Z</time>
      </trkpt>
      <trkpt lat="50.618970" lon="6.410749">
        <ele>500.500000</ele>
        <time>2009-09-01T09:38:15Z</time>
      </trkpt>
      <trkpt lat="50.618978" lon="6.410713">
        <ele>500.500000</ele>
        <time>2009-09-01T09:38:17Z</time>
      </trkpt>
      <trkpt lat="50.619015" lon="6.410554">
        <ele>499.540000</ele>
        <time>2009-09-01T09:38:25Z</time>
      </trkpt>
      <trkpt lat="50.619013" lon="6.410508">
        <ele>499.540000</ele>
        <time>2009-09-01T09:38:27Z</time>
      </trkpt>
      <trkpt lat="50.619053" lon="6.410306">
        <ele>499.060000</ele>
        <time>2009-09-01T09:38:34Z</time>
      </trkpt>
      <trkpt lat="50.619049" lon="6.410221">
        <ele>499.060000</ele>
        <time>2009-09-01T09:38:38Z</time>
      </trkpt>
      <trkpt lat="50.619116" lon="6.409952">
        <ele>498.100000</ele>
        <time>2009-09-01T09:38:49Z</time>
      </trkpt>
      <trkpt lat="50.619137" lon="6.409782">
        <ele>497.140000</ele>
        <time>2009-09-01T09:38:55Z</time>
      </trkpt>
      <trkpt lat="50.619343" lon="6.409924">
        <ele>496.180000</ele>
        <time>2009-09-01T09:39:10Z</time>
      </trkpt>
      <trkpt lat="50.619371" lon="6.410034">
        <ele>496.180000</ele>
        <time>2009-09-01T09:39:15Z</time>
      </trkpt>
      <trkpt lat="50.619420" lon="6.410369">
        <ele>495.220000</ele>
        <time>2009-09-01T09:39:29Z</time>
      </trkpt>
      <trkpt lat="50.619574" lon="6.410705">
        <ele>493.770000</ele>
        <time>2009-09-01T09:39:46Z</time>
      </trkpt>
      <trkpt lat="50.619682" lon="6.410946">
        <ele>492.810000</ele>
        <time>2009-09-01T09:39:58Z</time>
      </trkpt>
      <trkpt lat="50.619799" lon="6.411240">
        <ele>492.330000</ele>
        <time>2009-09-01T09:40:12Z</time>
      </trkpt>
      <trkpt lat="50.619878" lon="6.411488">
        <ele>491.850000</ele>
        <time>2009-09-01T09:40:26Z</time>
      </trkpt>
      <trkpt lat="50.620077" lon="6.411745">
        <ele>491.370000</ele>
        <time>2009-09-01T09:40:48Z</time>
      </trkpt>
      <trkpt lat="50.620266" lon="6.412037">
        <ele>490.890000</ele>
        <time>2009-09-01T09:41:08Z</time>
      </trkpt>
      <trkpt lat="50.620447" lon="6.412626">
        <ele>490.890000</ele>
        <time>2009-09-01T09:41:29Z</time>
      </trkpt>
      <trkpt lat="50.620559" lon="6.412831">
        <ele>490.890000</ele>
        <time>2009-09-01T09:41:42Z</time>
      </trkpt>
      <trkpt lat="50.620717" lon="6.413094">
        <ele>490.410000</ele>
        <time>2009-09-01T09:41:56Z</time>
      </trkpt>
      <trkpt lat="50.620934" lon="6.413385">
        <ele>490.890000</ele>
        <time>2009-09-01T09:42:12Z</time>
      </trkpt>
      <trkpt lat="50.621031" lon="6.413600">
        <ele>490.890000</ele>
        <time>2009-09-01T09:42:25Z</time>
      </trkpt>
      <trkpt lat="50.621135" lon="6.413801">
        <ele>490.410000</ele>
        <time>2009-09-01T09:42:35Z</time>
      </trkpt>
      <trkpt lat="50.621260" lon="6.413969">
        <ele>489.930000</ele>
        <time>2009-09-01T09:42:49Z</time>
      </trkpt>
      <trkpt lat="50.621301" lon="6.414010">
        <ele>489.930000</ele>
        <time>2009-09-01T09:42:52Z</time>
      </trkpt>
      <trkpt lat="50.621368" lon="6.414121">
        <ele>489.450000</ele>
        <time>2009-09-01T09:43:00Z</time>
      </trkpt>
      <trkpt lat="50.621499" lon="6.414304">
        <ele>489.450000</ele>
        <time>2009-09-01T09:43:08Z</time>
      </trkpt>
      <trkpt lat="50.621649" lon="6.414464">
        <ele>489.930000</ele>
        <time>2009-09-01T09:43:23Z</time>
      </trkpt>
      <trkpt lat="50.621806" lon="6.414695">
        <ele>488.970000</ele>
        <time>2009-09-01T09:43:39Z</time>
      </trkpt>
      <trkpt lat="50.621843" lon="6.414793">
        <ele>488.490000</ele>
        <time>2009-09-01T09:43:45Z</time>
      </trkpt>
      <trkpt lat="50.621882" lon="6.414894">
        <ele>488.490000</ele>
        <time>2009-09-01T09:43:50Z</time>
      </trkpt>
      <trkpt lat="50.621894" lon="6.414963">
        <ele>488.010000</ele>
        <time>2009-09-01T09:43:53Z</time>
      </trkpt>
      <trkpt lat="50.621933" lon="6.415023">
        <ele>487.530000</ele>
        <time>2009-09-01T09:43:57Z</time>
      </trkpt>
      <trkpt lat="50.621948" lon="6.415104">
        <ele>487.530000</ele>
        <time>2009-09-01T09:44:01Z</time>
      </trkpt>
      <trkpt lat="50.621999" lon="6.415362">
        <ele>486.560000</ele>
        <time>2009-09-01T09:44:13Z</time>
      </trkpt>
      <trkpt lat="50.622208" lon="6.415203">
        <ele>483.680000</ele>
        <time>2009-09-01T09:44:28Z</time>
      </trkpt>
      <trkpt lat="50.622212" lon="6.415178">
        <ele>483.200000</ele>
        <time>2009-09-01T09:44:31Z</time>
      </trkpt>
      <trkpt lat="50.622395" lon="6.414945">
        <ele>480.320000</ele>
        <time>2009-09-01T09:44:50Z</time>
      </trkpt>
      <trkpt lat="50.622398" lon="6.414834">
        <ele>480.320000</ele>
        <time>2009-09-01T09:45:01Z</time>
      </trkpt>
      <trkpt lat="50.622456" lon="6.414877">
        <ele>480.320000</ele>
        <time>2009-09-01T09:45:27Z</time>
      </trkpt>
      <trkpt lat="50.622414" lon="6.414899">
        <ele>480.320000</ele>
        <time>2009-09-01T09:45:56Z</time>
      </trkpt>
      <trkpt lat="50.622247" lon="6.415104">
        <ele>481.280000</ele>
        <time>2009-09-01T09:46:09Z</time>
      </trkpt>
      <trkpt lat="50.622188" lon="6.415179">
        <ele>482.720000</ele>
        <time>2009-09-01T09:46:31Z</time>
      </trkpt>
      <trkpt lat="50.622147" lon="6.415217">
        <ele>485.120000</ele>
        <time>2009-09-01T09:46:35Z</time>
      </trkpt>
      <trkpt lat="50.622057" lon="6.415260">
        <ele>487.530000</ele>
        <time>2009-09-01T09:46:40Z</time>
      </trkpt>
      <trkpt lat="50.621903" lon="6.414979">
        <ele>488.970000</ele>
        <time>2009-09-01T09:46:56Z</time>
      </trkpt>
      <trkpt lat="50.621882" lon="6.414968">
        <ele>488.970000</ele>
        <time>2009-09-01T09:46:58Z</time>
      </trkpt>
      <trkpt lat="50.621877" lon="6.414931">
        <ele>488.970000</ele>
        <time>2009-09-01T09:47:00Z</time>
      </trkpt>
      <trkpt lat="50.621862" lon="6.414868">
        <ele>488.970000</ele>
        <time>2009-09-01T09:47:03Z</time>
      </trkpt>
      <trkpt lat="50.621826" lon="6.414765">
        <ele>489.450000</ele>
        <time>2009-09-01T09:47:07Z</time>
      </trkpt>
      <trkpt lat="50.621799" lon="6.414715">
        <ele>488.970000</ele>
        <time>2009-09-01T09:47:10Z</time>
      </trkpt>
      <trkpt lat="50.621691" lon="6.414469">
        <ele>489.930000</ele>
        <time>2009-09-01T09:47:24Z</time>
      </trkpt>
      <trkpt lat="50.621565" lon="6.414255">
        <ele>489.450000</ele>
        <time>2009-09-01T09:47:38Z</time>
      </trkpt>
      <trkpt lat="50.621471" lon="6.414180">
        <ele>489.930000</ele>
        <time>2009-09-01T09:47:44Z</time>
      </trkpt>
      <trkpt lat="50.621404" lon="6.414146">
        <ele>490.410000</ele>
        <time>2009-09-01T09:47:48Z</time>
      </trkpt>
      <trkpt lat="50.621277" lon="6.413814">
        <ele>489.930000</ele>
        <time>2009-09-01T09:48:04Z</time>
      </trkpt>
      <trkpt lat="50.621132" lon="6.413588">
        <ele>489.930000</ele>
        <time>2009-09-01T09:48:17Z</time>
      </trkpt>
      <trkpt lat="50.620985" lon="6.413430">
        <ele>489.930000</ele>
        <time>2009-09-01T09:48:28Z</time>
      </trkpt>
      <trkpt lat="50.620901" lon="6.413333">
        <ele>489.930000</ele>
        <time>2009-09-01T09:48:36Z</time>
      </trkpt>
      <trkpt lat="50.620770" lon="6.413069">
        <ele>489.930000</ele>
        <time>2009-09-01T09:48:50Z</time>
      </trkpt>
      <trkpt lat="50.620686" lon="6.412915">
        <ele>489.930000</ele>
        <time>2009-09-01T09:49:00Z</time>
      </trkpt>
      <trkpt lat="50.620638" lon="6.412815">
        <ele>489.930000</ele>
        <time>2009-09-01T09:49:05Z</time>
      </trkpt>
      <trkpt lat="50.620479" lon="6.412548">
        <ele>489.450000</ele>
        <time>2009-09-01T09:49:18Z</time>
      </trkpt>
      <trkpt lat="50.620466" lon="6.412501">
        <ele>489.930000</ele>
        <time>2009-09-01T09:49:20Z</time>
      </trkpt>
      <trkpt lat="50.620404" lon="6.412420">
        <ele>489.930000</ele>
        <time>2009-09-01T09:49:24Z</time>
      </trkpt>
      <trkpt lat="50.620225" lon="6.412300">
        <ele>489.450000</ele>
        <time>2009-09-01T09:49:38Z</time>
      </trkpt>
      <trkpt lat="50.620101" lon="6.412061">
        <ele>489.930000</ele>
        <time>2009-09-01T09:49:50Z</time>
      </trkpt>
      <trkpt lat="50.620021" lon="6.411954">
        <ele>489.930000</ele>
        <time>2009-09-01T09:49:57Z</time>
      </trkpt>
      <trkpt lat="50.620020" lon="6.411914">
        <ele>489.930000</ele>
        <time>2009-09-01T09:49:59Z</time>
      </trkpt>
      <trkpt lat="50.619992" lon="6.411867">
        <ele>489.930000</ele>
        <time>2009-09-01T09:50:02Z</time>
      </trkpt>
      <trkpt lat="50.619948" lon="6.411620">
        <ele>489.930000</ele>
        <time>2009-09-01T09:50:14Z</time>
      </trkpt>
      <trkpt lat="50.619860" lon="6.411261">
        <ele>490.410000</ele>
        <time>2009-09-01T09:50:29Z</time>
      </trkpt>
      <trkpt lat="50.619826" lon="6.411180">
        <ele>490.410000</ele>
        <time>2009-09-01T09:50:34Z</time>
      </trkpt>
      <trkpt lat="50.619744" lon="6.411001">
        <ele>490.410000</ele>
        <time>2009-09-01T09:50:41Z</time>
      </trkpt>
      <trkpt lat="50.619652" lon="6.410760">
        <ele>490.890000</ele>
        <time>2009-09-01T09:50:54Z</time>
      </trkpt>
      <trkpt lat="50.619637" lon="6.410691">
        <ele>491.370000</ele>
        <time>2009-09-01T09:50:58Z</time>
      </trkpt>
      <trkpt lat="50.619440" lon="6.410286">
        <ele>492.330000</ele>
        <time>2009-09-01T09:51:18Z</time>
      </trkpt>
      <trkpt lat="50.619336" lon="6.410025">
        <ele>493.290000</ele>
        <time>2009-09-01T09:51:32Z</time>
      </trkpt>
      <trkpt lat="50.619311" lon="6.409984">
        <ele>493.770000</ele>
        <time>2009-09-01T09:51:36Z</time>
      </trkpt>
      <trkpt lat="50.619110" lon="6.409797">
        <ele>494.260000</ele>
        <time>2009-09-01T09:51:56Z</time>
      </trkpt>
      <trkpt lat="50.618925" lon="6.409524">
        <ele>494.260000</ele>
        <time>2009-09-01T09:52:12Z</time>
      </trkpt>
      <trkpt lat="50.618764" lon="6.409197">
        <ele>494.260000</ele>
        <time>2009-09-01T09:52:28Z</time>
      </trkpt>
      <trkpt lat="50.618691" lon="6.409004">
        <ele>494.260000</ele>
        <time>2009-09-01T09:52:39Z</time>
      </trkpt>
      <trkpt lat="50.618603" lon="6.408879">
        <ele>494.740000</ele>
        <time>2009-09-01T09:52:46Z</time>
      </trkpt>
      <trkpt lat="50.618475" lon="6.408623">
        <ele>494.260000</ele>
        <time>2009-09-01T09:53:00Z</time>
      </trkpt>
      <trkpt lat="50.618318" lon="6.408425">
        <ele>494.740000</ele>
        <time>2009-09-01T09:53:14Z</time>
      </trkpt>
      <trkpt lat="50.618210" lon="6.408274">
        <ele>494.740000</ele>
        <time>2009-09-01T09:53:26Z</time>
      </trkpt>
      <trkpt lat="50.617920" lon="6.407978">
        <ele>493.770000</ele>
        <time>2009-09-01T09:53:48Z</time>
      </trkpt>
      <trkpt lat="50.617684" lon="6.407622">
        <ele>493.290000</ele>
        <time>2009-09-01T09:54:10Z</time>
      </trkpt>
      <trkpt lat="50.617389" lon="6.407343">
        <ele>491.850000</ele>
        <time>2009-09-01T09:54:34Z</time>
      </trkpt>
      <trkpt lat="50.617101" lon="6.407057">
        <ele>491.370000</ele>
        <time>2009-09-01T09:54:58Z</time>
      </trkpt>
      <trkpt lat="50.616977" lon="6.406859">
        <ele>490.890000</ele>
        <time>2009-09-01T09:55:10Z</time>
      </trkpt>
      <trkpt lat="50.616938" lon="6.406820">
        <ele>490.890000</ele>
        <time>2009-09-01T09:55:14Z</time>
      </trkpt>
      <trkpt lat="50.616785" lon="6.406579">
        <ele>489.930000</ele>
        <time>2009-09-01T09:55:33Z</time>
      </trkpt>
      <trkpt lat="50.616613" lon="6.406337">
        <ele>489.450000</ele>
        <time>2009-09-01T09:55:54Z</time>
      </trkpt>
      <trkpt lat="50.616512" lon="6.406142">
        <ele>489.930000</ele>
        <time>2009-09-01T09:56:12Z</time>
      </trkpt>
      <trkpt lat="50.616327" lon="6.405830">
        <ele>488.970000</ele>
        <time>2009-09-01T09:56:34Z</time>
      </trkpt>
      <trkpt lat="50.616215" lon="6.405546">
        <ele>488.490000</ele>
        <time>2009-09-01T09:56:57Z</time>
      </trkpt>
      <trkpt lat="50.616188" lon="6.405472">
        <ele>488.010000</ele>
        <time>2009-09-01T09:57:04Z</time>
      </trkpt>
      <trkpt lat="50.616135" lon="6.405336">
        <ele>488.490000</ele>
        <time>2009-09-01T09:57:11Z</time>
      </trkpt>
      <trkpt lat="50.616126" lon="6.405134">
        <ele>488.010000</ele>
        <time>2009-09-01T09:57:19Z</time>
      </trkpt>
      <trkpt lat="50.616105" lon="6.405097">
        <ele>488.010000</ele>
        <time>2009-09-01T09:57:21Z</time>
      </trkpt>
      <trkpt lat="50.616049" lon="6.405018">
        <ele>487.530000</ele>
        <time>2009-09-01T09:57:26Z</time>
      </trkpt>
      <trkpt lat="50.615971" lon="6.404784">
        <ele>487.530000</ele>
        <time>2009-09-01T09:57:38Z</time>
      </trkpt>
      <trkpt lat="50.615961" lon="6.404759">
        <ele>487.530000</ele>
        <time>2009-09-01T09:57:39Z</time>
      </trkpt>
      <trkpt lat="50.615962" lon="6.404559">
        <ele>487.530000</ele>
        <time>2009-09-01T09:57:49Z</time>
      </trkpt>
      <trkpt lat="50.615946" lon="6.404422">
        <ele>487.530000</ele>
        <time>2009-09-01T09:57:56Z</time>
      </trkpt>
      <trkpt lat="50.615921" lon="6.404217">
        <ele>487.050000</ele>
        <time>2009-09-01T09:58:03Z</time>
      </trkpt>
      <trkpt lat="50.615882" lon="6.404048">
        <ele>487.050000</ele>
        <time>2009-09-01T09:58:11Z</time>
      </trkpt>
      <trkpt lat="50.615815" lon="6.403852">
        <ele>487.050000</ele>
        <time>2009-09-01T09:58:23Z</time>
      </trkpt>
      <trkpt lat="50.615693" lon="6.403485">
        <ele>487.530000</ele>
        <time>2009-09-01T09:58:43Z</time>
      </trkpt>
      <trkpt lat="50.615614" lon="6.403404">
        <ele>487.530000</ele>
        <time>2009-09-01T09:58:49Z</time>
      </trkpt>
      <trkpt lat="50.615471" lon="6.403200">
        <ele>486.560000</ele>
        <time>2009-09-01T09:59:05Z</time>
      </trkpt>
      <trkpt lat="50.615435" lon="6.403057">
        <ele>486.560000</ele>
        <time>2009-09-01T09:59:21Z</time>
      </trkpt>
      <trkpt lat="50.615381" lon="6.403021">
        <ele>485.600000</ele>
        <time>2009-09-01T09:59:40Z</time>
      </trkpt>
      <trkpt lat="50.615264" lon="6.402816">
        <ele>484.640000</ele>
        <time>2009-09-01T10:00:10Z</time>
      </trkpt>
      <trkpt lat="50.615063" lon="6.402700">
        <ele>483.200000</ele>
        <time>2009-09-01T10:00:28Z</time>
      </trkpt>
      <trkpt lat="50.614853" lon="6.402598">
        <ele>482.240000</ele>
        <time>2009-09-01T10:00:46Z</time>
      </trkpt>
      <trkpt lat="50.614676" lon="6.402591">
        <ele>479.840000</ele>
        <time>2009-09-01T10:01:09Z</time>
      </trkpt>
      <trkpt lat="50.614482" lon="6.402564">
        <ele>478.870000</ele>
        <time>2009-09-01T10:01:21Z</time>
      </trkpt>
      <trkpt lat="50.614284" lon="6.402565">
        <ele>477.430000</ele>
        <time>2009-09-01T10:01:37Z</time>
      </trkpt>
      <trkpt lat="50.614045" lon="6.402556">
        <ele>475.510000</ele>
        <time>2009-09-01T10:01:54Z</time>
      </trkpt>
      <trkpt lat="50.613818" lon="6.402530">
        <ele>473.590000</ele>
        <time>2009-09-01T10:02:12Z</time>
      </trkpt>
      <trkpt lat="50.613578" lon="6.402311">
        <ele>471.660000</ele>
        <time>2009-09-01T10:02:28Z</time>
      </trkpt>
      <trkpt lat="50.613517" lon="6.402263">
        <ele>471.180000</ele>
        <time>2009-09-01T10:02:34Z</time>
      </trkpt>
      <trkpt lat="50.613457" lon="6.402196">
        <ele>470.700000</ele>
        <time>2009-09-01T10:02:38Z</time>
      </trkpt>
      <trkpt lat="50.613398" lon="6.402152">
        <ele>470.220000</ele>
        <time>2009-09-01T10:02:44Z</time>
      </trkpt>
      <trkpt lat="50.613313" lon="6.402099">
        <ele>469.260000</ele>
        <time>2009-09-01T10:02:50Z</time>
      </trkpt>
      <trkpt lat="50.613131" lon="6.401993">
        <ele>468.300000</ele>
        <time>2009-09-01T10:03:04Z</time>
      </trkpt>
      <trkpt lat="50.613084" lon="6.401935">
        <ele>467.820000</ele>
        <time>2009-09-01T10:03:08Z</time>
      </trkpt>
      <trkpt lat="50.612963" lon="6.401856">
        <ele>466.380000</ele>
        <time>2009-09-01T10:03:19Z</time>
      </trkpt>
      <trkpt lat="50.612904" lon="6.401788">
        <ele>465.900000</ele>
        <time>2009-09-01T10:03:24Z</time>
      </trkpt>
      <trkpt lat="50.612879" lon="6.401759">
        <ele>465.900000</ele>
        <time>2009-09-01T10:03:26Z</time>
      </trkpt>
      <trkpt lat="50.612792" lon="6.401662">
        <ele>464.450000</ele>
        <time>2009-09-01T10:03:33Z</time>
      </trkpt>
      <trkpt lat="50.612617" lon="6.401595">
        <ele>463.490000</ele>
        <time>2009-09-01T10:03:44Z</time>
      </trkpt>
      <trkpt lat="50.612446" lon="6.401566">
        <ele>463.010000</ele>
        <time>2009-09-01T10:03:56Z</time>
      </trkpt>
      <trkpt lat="50.612275" lon="6.401542">
        <ele>463.010000</ele>
        <time>2009-09-01T10:04:11Z</time>
      </trkpt>
      <trkpt lat="50.612257" lon="6.401562">
        <ele>463.010000</ele>
        <time>2009-09-01T10:04:15Z</time>
      </trkpt>
      <trkpt lat="50.612160" lon="6.401654">
        <ele>463.010000</ele>
        <time>2009-09-01T10:04:31Z</time>
      </trkpt>
      <trkpt lat="50.612195" lon="6.401619">
        <ele>462.050000</ele>
        <time>2009-09-01T10:04:35Z</time>
      </trkpt>
      <trkpt lat="50.612222" lon="6.401494">
        <ele>461.570000</ele>
        <time>2009-09-01T10:04:47Z</time>
      </trkpt>
      <trkpt lat="50.612164" lon="6.401388">
        <ele>460.610000</ele>
        <time>2009-09-01T10:05:01Z</time>
      </trkpt>
      <trkpt lat="50.612048" lon="6.401155">
        <ele>458.690000</ele>
        <time>2009-09-01T10:05:28Z</time>
      </trkpt>
      <trkpt lat="50.611947" lon="6.400942">
        <ele>456.760000</ele>
        <time>2009-09-01T10:05:44Z</time>
      </trkpt>
      <trkpt lat="50.611922" lon="6.400727">
        <ele>456.280000</ele>
        <time>2009-09-01T10:06:09Z</time>
      </trkpt>
      <trkpt lat="50.611821" lon="6.400458">
        <ele>453.880000</ele>
        <time>2009-09-01T10:06:22Z</time>
      </trkpt>
      <trkpt lat="50.611797" lon="6.400273">
        <ele>451.960000</ele>
        <time>2009-09-01T10:06:34Z</time>
      </trkpt>
      <trkpt lat="50.611781" lon="6.400062">
        <ele>449.550000</ele>
        <time>2009-09-01T10:06:50Z</time>
      </trkpt>
      <trkpt lat="50.611763" lon="6.400035">
        <ele>449.070000</ele>
        <time>2009-09-01T10:06:52Z</time>
      </trkpt>
      <trkpt lat="50.611720" lon="6.399860">
        <ele>447.150000</ele>
        <time>2009-09-01T10:07:05Z</time>
      </trkpt>
      <trkpt lat="50.611641" lon="6.399593">
        <ele>444.750000</ele>
        <time>2009-09-01T10:07:18Z</time>
      </trkpt>
      <trkpt lat="50.611609" lon="6.399428">
        <ele>441.860000</ele>
        <time>2009-09-01T10:07:31Z</time>
      </trkpt>
      <trkpt lat="50.611570" lon="6.399201">
        <ele>438.980000</ele>
        <time>2009-09-01T10:07:48Z</time>
      </trkpt>
      <trkpt lat="50.611555" lon="6.399073">
        <ele>438.020000</ele>
        <time>2009-09-01T10:07:54Z</time>
      </trkpt>
      <trkpt lat="50.611527" lon="6.398966">
        <ele>436.100000</ele>
        <time>2009-09-01T10:08:00Z</time>
      </trkpt>
      <trkpt lat="50.611462" lon="6.398766">
        <ele>433.210000</ele>
        <time>2009-09-01T10:08:15Z</time>
      </trkpt>
      <trkpt lat="50.611448" lon="6.398621">
        <ele>430.330000</ele>
        <time>2009-09-01T10:08:24Z</time>
      </trkpt>
      <trkpt lat="50.611453" lon="6.398446">
        <ele>427.440000</ele>
        <time>2009-09-01T10:08:37Z</time>
      </trkpt>
      <trkpt lat="50.611396" lon="6.398266">
        <ele>423.600000</ele>
        <time>2009-09-01T10:08:48Z</time>
      </trkpt>
      <trkpt lat="50.611325" lon="6.398071">
        <ele>420.230000</ele>
        <time>2009-09-01T10:08:57Z</time>
      </trkpt>
      <trkpt lat="50.611183" lon="6.397807">
        <ele>417.350000</ele>
        <time>2009-09-01T10:09:13Z</time>
      </trkpt>
      <trkpt lat="50.611128" lon="6.397656">
        <ele>414.470000</ele>
        <time>2009-09-01T10:09:20Z</time>
      </trkpt>
      <trkpt lat="50.611131" lon="6.397596">
        <ele>413.020000</ele>
        <time>2009-09-01T10:09:23Z</time>
      </trkpt>
      <trkpt lat="50.611071" lon="6.397402">
        <ele>410.140000</ele>
        <time>2009-09-01T10:09:31Z</time>
      </trkpt>
      <trkpt lat="50.611044" lon="6.397367">
        <ele>409.660000</ele>
        <time>2009-09-01T10:09:50Z</time>
      </trkpt>
      <trkpt lat="50.610946" lon="6.397184">
        <ele>406.290000</ele>
        <time>2009-09-01T10:10:05Z</time>
      </trkpt>
      <trkpt lat="50.610870" lon="6.397020">
        <ele>403.890000</ele>
        <time>2009-09-01T10:10:16Z</time>
      </trkpt>
      <trkpt lat="50.610858" lon="6.396990">
        <ele>402.930000</ele>
        <time>2009-09-01T10:10:18Z</time>
      </trkpt>
      <trkpt lat="50.610783" lon="6.396917">
        <ele>401.490000</ele>
        <time>2009-09-01T10:10:24Z</time>
      </trkpt>
      <trkpt lat="50.610773" lon="6.396874">
        <ele>400.050000</ele>
        <time>2009-09-01T10:10:28Z</time>
      </trkpt>
      <trkpt lat="50.610719" lon="6.396653">
        <ele>396.680000</ele>
        <time>2009-09-01T10:10:40Z</time>
      </trkpt>
      <trkpt lat="50.610612" lon="6.396527">
        <ele>393.320000</ele>
        <time>2009-09-01T10:10:51Z</time>
      </trkpt>
      <trkpt lat="50.610572" lon="6.396433">
        <ele>391.390000</ele>
        <time>2009-09-01T10:10:57Z</time>
      </trkpt>
      <trkpt lat="50.610491" lon="6.396205">
        <ele>388.510000</ele>
        <time>2009-09-01T10:11:10Z</time>
      </trkpt>
      <trkpt lat="50.610403" lon="6.395967">
        <ele>385.150000</ele>
        <time>2009-09-01T10:11:22Z</time>
      </trkpt>
      <trkpt lat="50.610307" lon="6.395753">
        <ele>382.260000</ele>
        <time>2009-09-01T10:11:32Z</time>
      </trkpt>
      <trkpt lat="50.610282" lon="6.395611">
        <ele>379.380000</ele>
        <time>2009-09-01T10:11:41Z</time>
      </trkpt>
      <trkpt lat="50.610231" lon="6.395425">
        <ele>376.490000</ele>
        <time>2009-09-01T10:11:49Z</time>
      </trkpt>
      <trkpt lat="50.610221" lon="6.395392">
        <ele>375.530000</ele>
        <time>2009-09-01T10:11:51Z</time>
      </trkpt>
      <trkpt lat="50.610171" lon="6.395184">
        <ele>372.170000</ele>
        <time>2009-09-01T10:12:03Z</time>
      </trkpt>
      <trkpt lat="50.610107" lon="6.395024">
        <ele>369.280000</ele>
        <time>2009-09-01T10:12:12Z</time>
      </trkpt>
      <trkpt lat="50.610080" lon="6.394977">
        <ele>368.800000</ele>
        <time>2009-09-01T10:12:15Z</time>
      </trkpt>
      <trkpt lat="50.610062" lon="6.394857">
        <ele>366.880000</ele>
        <time>2009-09-01T10:12:20Z</time>
      </trkpt>
      <trkpt lat="50.610048" lon="6.394809">
        <ele>365.920000</ele>
        <time>2009-09-01T10:12:22Z</time>
      </trkpt>
      <trkpt lat="50.610016" lon="6.394647">
        <ele>363.520000</ele>
        <time>2009-09-01T10:12:31Z</time>
      </trkpt>
      <trkpt lat="50.609934" lon="6.394519">
        <ele>361.590000</ele>
        <time>2009-09-01T10:12:40Z</time>
      </trkpt>
      <trkpt lat="50.609911" lon="6.394463">
        <ele>361.110000</ele>
        <time>2009-09-01T10:12:42Z</time>
      </trkpt>
      <trkpt lat="50.609877" lon="6.394382">
        <ele>359.670000</ele>
        <time>2009-09-01T10:12:46Z</time>
      </trkpt>
      <trkpt lat="50.609869" lon="6.394299">
        <ele>359.190000</ele>
        <time>2009-09-01T10:12:50Z</time>
      </trkpt>
      <trkpt lat="50.609811" lon="6.394143">
        <ele>356.310000</ele>
        <time>2009-09-01T10:12:59Z</time>
      </trkpt>
      <trkpt lat="50.609719" lon="6.393907">
        <ele>352.940000</ele>
        <time>2009-09-01T10:13:11Z</time>
      </trkpt>
      <trkpt lat="50.609642" lon="6.393773">
        <ele>351.020000</ele>
        <time>2009-09-01T10:13:21Z</time>
      </trkpt>
      <trkpt lat="50.609465" lon="6.393504">
        <ele>349.100000</ele>
        <time>2009-09-01T10:13:40Z</time>
      </trkpt>
      <trkpt lat="50.609315" lon="6.393264">
        <ele>347.650000</ele>
        <time>2009-09-01T10:13:57Z</time>
      </trkpt>
      <trkpt lat="50.609307" lon="6.393256">
        <ele>348.620000</ele>
        <time>2009-09-01T10:13:58Z</time>
      </trkpt>
      <trkpt lat="50.609119" lon="6.393018">
        <ele>346.690000</ele>
        <time>2009-09-01T10:14:15Z</time>
      </trkpt>
      <trkpt lat="50.609077" lon="6.392942">
        <ele>346.210000</ele>
        <time>2009-09-01T10:14:19Z</time>
      </trkpt>
      <trkpt lat="50.609032" lon="6.392887">
        <ele>345.250000</ele>
        <time>2009-09-01T10:14:22Z</time>
      </trkpt>
      <trkpt lat="50.608974" lon="6.392882">
        <ele>344.770000</ele>
        <time>2009-09-01T10:14:26Z</time>
      </trkpt>
      <trkpt lat="50.608836" lon="6.392674">
        <ele>343.810000</ele>
        <time>2009-09-01T10:14:40Z</time>
      </trkpt>
      <trkpt lat="50.608756" lon="6.392515">
        <ele>344.290000</ele>
        <time>2009-09-01T10:14:49Z</time>
      </trkpt>
      <trkpt lat="50.608611" lon="6.392187">
        <ele>347.650000</ele>
        <time>2009-09-01T10:15:08Z</time>
      </trkpt>
      <trkpt lat="50.608417" lon="6.391954">
        <ele>348.130000</ele>
        <time>2009-09-01T10:15:27Z</time>
      </trkpt>
      <trkpt lat="50.608301" lon="6.391778">
        <ele>349.100000</ele>
        <time>2009-09-01T10:15:40Z</time>
      </trkpt>
      <trkpt lat="50.608330" lon="6.391537">
        <ele>346.690000</ele>
        <time>2009-09-01T10:15:55Z</time>
      </trkpt>
      <trkpt lat="50.608292" lon="6.391455">
        <ele>343.330000</ele>
        <time>2009-09-01T10:16:09Z</time>
      </trkpt>
      <trkpt lat="50.608265" lon="6.391492">
        <ele>342.850000</ele>
        <time>2009-09-01T10:16:12Z</time>
      </trkpt>
      <trkpt lat="50.608214" lon="6.391468">
        <ele>339.960000</ele>
        <time>2009-09-01T10:16:27Z</time>
      </trkpt>
      <trkpt lat="50.608205" lon="6.391241">
        <ele>336.600000</ele>
        <time>2009-09-01T10:16:42Z</time>
      </trkpt>
      <trkpt lat="50.608136" lon="6.391173">
        <ele>333.230000</ele>
        <time>2009-09-01T10:16:52Z</time>
      </trkpt>
      <trkpt lat="50.608056" lon="6.391295">
        <ele>330.350000</ele>
        <time>2009-09-01T10:17:03Z</time>
      </trkpt>
      <trkpt lat="50.607977" lon="6.391205">
        <ele>326.990000</ele>
        <time>2009-09-01T10:17:12Z</time>
      </trkpt>
      <trkpt lat="50.607959" lon="6.391031">
        <ele>323.620000</ele>
        <time>2009-09-01T10:17:23Z</time>
      </trkpt>
      <trkpt lat="50.607981" lon="6.390977">
        <ele>323.140000</ele>
        <time>2009-09-01T10:17:27Z</time>
      </trkpt>
      <trkpt lat="50.608003" lon="6.390780">
        <ele>321.700000</ele>
        <time>2009-09-01T10:17:47Z</time>
      </trkpt>
      <trkpt lat="50.607926" lon="6.390721">
        <ele>318.330000</ele>
        <time>2009-09-01T10:17:59Z</time>
      </trkpt>
      <trkpt lat="50.607856" lon="6.390761">
        <ele>314.970000</ele>
        <time>2009-09-01T10:18:09Z</time>
      </trkpt>
      <trkpt lat="50.607916" lon="6.390622">
        <ele>311.600000</ele>
        <time>2009-09-01T10:18:21Z</time>
      </trkpt>
      <trkpt lat="50.607861" lon="6.390409">
        <ele>309.200000</ele>
        <time>2009-09-01T10:18:37Z</time>
      </trkpt>
      <trkpt lat="50.607920" lon="6.390231">
        <ele>305.840000</ele>
        <time>2009-09-01T10:18:50Z</time>
      </trkpt>
      <trkpt lat="50.607880" lon="6.390144">
        <ele>302.950000</ele>
        <time>2009-09-01T10:19:00Z</time>
      </trkpt>
      <trkpt lat="50.607742" lon="6.390168">
        <ele>299.590000</ele>
        <time>2009-09-01T10:19:15Z</time>
      </trkpt>
      <trkpt lat="50.607717" lon="6.390138">
        <ele>296.700000</ele>
        <time>2009-09-01T10:19:28Z</time>
      </trkpt>
      <trkpt lat="50.607776" lon="6.389933">
        <ele>292.860000</ele>
        <time>2009-09-01T10:19:47Z</time>
      </trkpt>
      <trkpt lat="50.607821" lon="6.389811">
        <ele>289.970000</ele>
        <time>2009-09-01T10:20:07Z</time>
      </trkpt>
      <trkpt lat="50.607702" lon="6.389836">
        <ele>287.090000</ele>
        <time>2009-09-01T10:20:26Z</time>
      </trkpt>
      <trkpt lat="50.607650" lon="6.389876">
        <ele>286.130000</ele>
        <time>2009-09-01T10:20:33Z</time>
      </trkpt>
      <trkpt lat="50.607527" lon="6.389757">
        <ele>284.690000</ele>
        <time>2009-09-01T10:20:51Z</time>
      </trkpt>
      <trkpt lat="50.607515" lon="6.389630">
        <ele>284.210000</ele>
        <time>2009-09-01T10:20:59Z</time>
      </trkpt>
      <trkpt lat="50.607491" lon="6.389602">
        <ele>285.170000</ele>
        <time>2009-09-01T10:21:17Z</time>
      </trkpt>
      <trkpt lat="50.607475" lon="6.389542">
        <ele>285.650000</ele>
        <time>2009-09-01T10:21:23Z</time>
      </trkpt>
      <trkpt lat="50.607445" lon="6.389202">
        <ele>284.690000</ele>
        <time>2009-09-01T10:21:38Z</time>
      </trkpt>
      <trkpt lat="50.607410" lon="6.388840">
        <ele>284.690000</ele>
        <time>2009-09-01T10:21:54Z</time>
      </trkpt>
      <trkpt lat="50.607347" lon="6.388546">
        <ele>284.690000</ele>
        <time>2009-09-01T10:22:08Z</time>
      </trkpt>
      <trkpt lat="50.607293" lon="6.388273">
        <ele>284.690000</ele>
        <time>2009-09-01T10:22:23Z</time>
      </trkpt>
      <trkpt lat="50.607149" lon="6.387934">
        <ele>284.690000</ele>
        <time>2009-09-01T10:22:39Z</time>
      </trkpt>
      <trkpt lat="50.607010" lon="6.387655">
        <ele>284.690000</ele>
        <time>2009-09-01T10:22:52Z</time>
      </trkpt>
      <trkpt lat="50.606892" lon="6.387509">
        <ele>284.210000</ele>
        <time>2009-09-01T10:23:03Z</time>
      </trkpt>
      <trkpt lat="50.606797" lon="6.387417">
        <ele>285.170000</ele>
        <time>2009-09-01T10:23:10Z</time>
      </trkpt>
      <trkpt lat="50.606654" lon="6.387202">
        <ele>284.690000</ele>
        <time>2009-09-01T10:23:24Z</time>
      </trkpt>
      <trkpt lat="50.606497" lon="6.386996">
        <ele>285.170000</ele>
        <time>2009-09-01T10:23:39Z</time>
      </trkpt>
      <trkpt lat="50.606360" lon="6.386855">
        <ele>284.690000</ele>
        <time>2009-09-01T10:23:54Z</time>
      </trkpt>
      <trkpt lat="50.606355" lon="6.386855">
        <ele>286.130000</ele>
        <time>2009-09-01T10:23:57Z</time>
      </trkpt>
      <trkpt lat="50.606229" lon="6.386659">
        <ele>285.170000</ele>
        <time>2009-09-01T10:24:14Z</time>
      </trkpt>
      <trkpt lat="50.606069" lon="6.386470">
        <ele>285.650000</ele>
        <time>2009-09-01T10:24:28Z</time>
      </trkpt>
      <trkpt lat="50.605960" lon="6.386303">
        <ele>285.650000</ele>
        <time>2009-09-01T10:24:38Z</time>
      </trkpt>
      <trkpt lat="50.605819" lon="6.386121">
        <ele>286.130000</ele>
        <time>2009-09-01T10:24:53Z</time>
      </trkpt>
      <trkpt lat="50.605670" lon="6.385925">
        <ele>286.130000</ele>
        <time>2009-09-01T10:25:07Z</time>
      </trkpt>
      <trkpt lat="50.605487" lon="6.385710">
        <ele>285.170000</ele>
        <time>2009-09-01T10:25:21Z</time>
      </trkpt>
      <trkpt lat="50.605424" lon="6.385568">
        <ele>285.170000</ele>
        <time>2009-09-01T10:25:29Z</time>
      </trkpt>
      <trkpt lat="50.605513" lon="6.385225">
        <ele>285.170000</ele>
        <time>2009-09-01T10:25:44Z</time>
      </trkpt>
      <trkpt lat="50.605711" lon="6.385046">
        <ele>285.650000</ele>
        <time>2009-09-01T10:25:59Z</time>
      </trkpt>
      <trkpt lat="50.605749" lon="6.385010">
        <ele>285.170000</ele>
        <time>2009-09-01T10:26:08Z</time>
      </trkpt>
      <trkpt lat="50.605786" lon="6.384961">
        <ele>285.170000</ele>
        <time>2009-09-01T10:26:12Z</time>
      </trkpt>
      <trkpt lat="50.605907" lon="6.384740">
        <ele>285.650000</ele>
        <time>2009-09-01T10:26:28Z</time>
      </trkpt>
      <trkpt lat="50.606078" lon="6.384538">
        <ele>286.130000</ele>
        <time>2009-09-01T10:26:43Z</time>
      </trkpt>
      <trkpt lat="50.606261" lon="6.384313">
        <ele>285.650000</ele>
        <time>2009-09-01T10:26:58Z</time>
      </trkpt>
      <trkpt lat="50.606430" lon="6.384106">
        <ele>285.650000</ele>
        <time>2009-09-01T10:27:12Z</time>
      </trkpt>
      <trkpt lat="50.606598" lon="6.383900">
        <ele>286.130000</ele>
        <time>2009-09-01T10:27:28Z</time>
      </trkpt>
      <trkpt lat="50.606733" lon="6.383725">
        <ele>285.650000</ele>
        <time>2009-09-01T10:27:41Z</time>
      </trkpt>
      <trkpt lat="50.606826" lon="6.383629">
        <ele>285.650000</ele>
        <time>2009-09-01T10:27:51Z</time>
      </trkpt>
      <trkpt lat="50.606836" lon="6.383562">
        <ele>285.650000</ele>
        <time>2009-09-01T10:27:59Z</time>
      </trkpt>
      <trkpt lat="50.606977" lon="6.383434">
        <ele>285.650000</ele>
        <time>2009-09-01T10:28:09Z</time>
      </trkpt>
      <trkpt lat="50.607003" lon="6.383348">
        <ele>285.650000</ele>
        <time>2009-09-01T10:28:16Z</time>
      </trkpt>
      <trkpt lat="50.607163" lon="6.383240">
        <ele>283.250000</ele>
        <time>2009-09-01T10:33:28Z</time>
      </trkpt>
      <trkpt lat="50.607201" lon="6.383355">
        <ele>284.210000</ele>
        <time>2009-09-01T10:33:37Z</time>
      </trkpt>
      <trkpt lat="50.607291" lon="6.383624">
        <ele>284.210000</ele>
        <time>2009-09-01T10:33:53Z</time>
      </trkpt>
      <trkpt lat="50.607292" lon="6.383705">
        <ele>284.690000</ele>
        <time>2009-09-01T10:33:59Z</time>
      </trkpt>
      <trkpt lat="50.607320" lon="6.383792">
        <ele>284.690000</ele>
        <time>2009-09-01T10:34:04Z</time>
      </trkpt>
      <trkpt lat="50.607341" lon="6.383844">
        <ele>284.210000</ele>
        <time>2009-09-01T10:34:06Z</time>
      </trkpt>
      <trkpt lat="50.607361" lon="6.383924">
        <ele>284.690000</ele>
        <time>2009-09-01T10:34:11Z</time>
      </trkpt>
      <trkpt lat="50.607357" lon="6.383989">
        <ele>284.690000</ele>
        <time>2009-09-01T10:34:14Z</time>
      </trkpt>
      <trkpt lat="50.607352" lon="6.384117">
        <ele>284.690000</ele>
        <time>2009-09-01T10:34:20Z</time>
      </trkpt>
      <trkpt lat="50.607434" lon="6.384390">
        <ele>285.170000</ele>
        <time>2009-09-01T10:34:34Z</time>
      </trkpt>
      <trkpt lat="50.607474" lon="6.384534">
        <ele>285.170000</ele>
        <time>2009-09-01T10:34:46Z</time>
      </trkpt>
      <trkpt lat="50.607596" lon="6.384790">
        <ele>285.170000</ele>
        <time>2009-09-01T10:35:00Z</time>
      </trkpt>
      <trkpt lat="50.607827" lon="6.385019">
        <ele>285.170000</ele>
        <time>2009-09-01T10:35:15Z</time>
      </trkpt>
      <trkpt lat="50.607991" lon="6.385165">
        <ele>285.650000</ele>
        <time>2009-09-01T10:35:30Z</time>
      </trkpt>
      <trkpt lat="50.608010" lon="6.385186">
        <ele>285.170000</ele>
        <time>2009-09-01T10:35:32Z</time>
      </trkpt>
      <trkpt lat="50.608030" lon="6.385204">
        <ele>285.650000</ele>
        <time>2009-09-01T10:35:54Z</time>
      </trkpt>
      <trkpt lat="50.608154" lon="6.385270">
        <ele>287.090000</ele>
        <time>2009-09-01T10:39:01Z</time>
      </trkpt>
      <trkpt lat="50.608230" lon="6.385311">
        <ele>287.090000</ele>
        <time>2009-09-01T10:39:07Z</time>
      </trkpt>
      <trkpt lat="50.608404" lon="6.385442">
        <ele>287.570000</ele>
        <time>2009-09-01T10:39:23Z</time>
      </trkpt>
      <trkpt lat="50.608471" lon="6.385482">
        <ele>287.570000</ele>
        <time>2009-09-01T10:39:30Z</time>
      </trkpt>
      <trkpt lat="50.608579" lon="6.385571">
        <ele>287.570000</ele>
        <time>2009-09-01T10:39:39Z</time>
      </trkpt>
      <trkpt lat="50.608614" lon="6.385598">
        <ele>288.530000</ele>
        <time>2009-09-01T10:43:10Z</time>
      </trkpt>
      <trkpt lat="50.608651" lon="6.385517">
        <ele>288.530000</ele>
        <time>2009-09-01T10:43:28Z</time>
      </trkpt>
      <trkpt lat="50.608763" lon="6.385478">
        <ele>287.570000</ele>
        <time>2009-09-01T10:43:47Z</time>
      </trkpt>
      <trkpt lat="50.608838" lon="6.385456">
        <ele>289.010000</ele>
        <time>2009-09-01T10:44:03Z</time>
      </trkpt>
      <trkpt lat="50.609044" lon="6.385314">
        <ele>287.570000</ele>
        <time>2009-09-01T10:45:42Z</time>
      </trkpt>
      <trkpt lat="50.609234" lon="6.385236">
        <ele>287.090000</ele>
        <time>2009-09-01T10:46:01Z</time>
      </trkpt>
      <trkpt lat="50.609261" lon="6.385152">
        <ele>287.090000</ele>
        <time>2009-09-01T10:46:05Z</time>
      </trkpt>
      <trkpt lat="50.609318" lon="6.385057">
        <ele>287.570000</ele>
        <time>2009-09-01T10:46:25Z</time>
      </trkpt>
    </trkseg>
  </trk>

</gpx>
